<?xml version="1.0" encoding="UTF-8" standalone="no" ?>
<gpx xmlns="http://www.topografix.com/GPX/1/1" xmlns:xsi="http://www.w3.org/2001/XMLSchema-instance" xsi:schemaLocation="http://www.topografix.com/GPX/1/1 http://www.topografix.com/GPX/1/1/gpx.xsd" version="1.1" creator="VisuGPX - https://www.visugpx.com">
  <metadata>
    <name>J1 : L'Echalp &amp;gt;&amp;gt; Jervis</name>
    <desc><![CDATA[Tour du Viso en 6 jours de refuge en refuge]]></desc>
  </metadata>
  <trk>
    <name><![CDATA[J1 : L'Echalp - Jervis]]></name>
    <trkseg>
      <trkpt lat="44.75917" lon="6.99375">
        <ele>1716.0905761719</ele>
        <time>2011-07-24T07:18:51Z</time>
      </trkpt>
      <trkpt lat="44.75916" lon="6.99376">
        <ele>1714.6486816406</ele>
        <time>2011-07-24T07:18:52Z</time>
      </trkpt>
      <trkpt lat="44.75913" lon="6.99375">
        <ele>1712.2453613281</ele>
        <time>2011-07-24T07:18:58Z</time>
      </trkpt>
      <trkpt lat="44.75913" lon="6.99372">
        <ele>1710.3227539062</ele>
        <time>2011-07-24T07:19:01Z</time>
      </trkpt>
      <trkpt lat="44.75909" lon="6.9936">
        <ele>1718.2626953125</ele>
        <time>2011-07-24T07:20:01Z</time>
      </trkpt>
      <trkpt lat="44.75902" lon="6.99361">
        <ele>1726.5631103516</ele>
        <time>2011-07-24T07:21:03Z</time>
      </trkpt>
      <trkpt lat="44.75894" lon="6.99367">
        <ele>1730.3436279297</ele>
        <time>2011-07-24T07:21:31Z</time>
      </trkpt>
      <trkpt lat="44.75889" lon="6.99382">
        <ele>1734.3956298828</ele>
        <time>2011-07-24T07:22:01Z</time>
      </trkpt>
      <trkpt lat="44.75886" lon="6.99399">
        <ele>1739.4495849609</ele>
        <time>2011-07-24T07:22:38Z</time>
      </trkpt>
      <trkpt lat="44.75886" lon="6.99406">
        <ele>1739.9240722656</ele>
        <time>2011-07-24T07:22:42Z</time>
      </trkpt>
      <trkpt lat="44.75885" lon="6.99415">
        <ele>1740.7308349609</ele>
        <time>2011-07-24T07:22:48Z</time>
      </trkpt>
      <trkpt lat="44.75883" lon="6.99438">
        <ele>1746.5748291016</ele>
        <time>2011-07-24T07:23:32Z</time>
      </trkpt>
      <trkpt lat="44.75882" lon="6.99448">
        <ele>1750.7391357422</ele>
        <time>2011-07-24T07:24:03Z</time>
      </trkpt>
      <trkpt lat="44.75881" lon="6.99459">
        <ele>1755.8992919922</ele>
        <time>2011-07-24T07:24:42Z</time>
      </trkpt>
      <trkpt lat="44.75878" lon="6.99474">
        <ele>1759.9617919922</ele>
        <time>2011-07-24T07:25:12Z</time>
      </trkpt>
      <trkpt lat="44.75877" lon="6.99493">
        <ele>1765.2058105469</ele>
        <time>2011-07-24T07:25:51Z</time>
      </trkpt>
      <trkpt lat="44.7588" lon="6.99514">
        <ele>1770.6646728516</ele>
        <time>2011-07-24T07:26:32Z</time>
      </trkpt>
      <trkpt lat="44.7588" lon="6.99522">
        <ele>1772.3363037109</ele>
        <time>2011-07-24T07:26:43Z</time>
      </trkpt>
      <trkpt lat="44.7588" lon="6.99524">
        <ele>1772.6666259766</ele>
        <time>2011-07-24T07:26:46Z</time>
      </trkpt>
      <trkpt lat="44.7588" lon="6.9953">
        <ele>1774.3278808594</ele>
        <time>2011-07-24T07:26:59Z</time>
      </trkpt>
      <trkpt lat="44.7588" lon="6.99538">
        <ele>1775.5454101562</ele>
        <time>2011-07-24T07:27:08Z</time>
      </trkpt>
      <trkpt lat="44.75881" lon="6.99544">
        <ele>1777.4588623047</ele>
        <time>2011-07-24T07:27:22Z</time>
      </trkpt>
      <trkpt lat="44.75884" lon="6.99547">
        <ele>1778.7371826172</ele>
        <time>2011-07-24T07:27:31Z</time>
      </trkpt>
      <trkpt lat="44.75888" lon="6.99555">
        <ele>1781.0439453125</ele>
        <time>2011-07-24T07:27:48Z</time>
      </trkpt>
      <trkpt lat="44.75891" lon="6.99558">
        <ele>1782.3303222656</ele>
        <time>2011-07-24T07:27:57Z</time>
      </trkpt>
      <trkpt lat="44.75897" lon="6.99557">
        <ele>1784.3184814453</ele>
        <time>2011-07-24T07:28:12Z</time>
      </trkpt>
      <trkpt lat="44.75904" lon="6.99556">
        <ele>1786.4156494141</ele>
        <time>2011-07-24T07:28:27Z</time>
      </trkpt>
      <trkpt lat="44.75916" lon="6.99565">
        <ele>1790.3850097656</ele>
        <time>2011-07-24T07:28:57Z</time>
      </trkpt>
      <trkpt lat="44.75916" lon="6.99565">
        <ele>1791.6110839844</ele>
        <time>2011-07-24T07:29:06Z</time>
      </trkpt>
      <trkpt lat="44.75915" lon="6.99568">
        <ele>1792.9553222656</ele>
        <time>2011-07-24T07:29:16Z</time>
      </trkpt>
      <trkpt lat="44.75909" lon="6.99573">
        <ele>1794.5225830078</ele>
        <time>2011-07-24T07:29:27Z</time>
      </trkpt>
      <trkpt lat="44.75911" lon="6.99577">
        <ele>1795.7391357422</ele>
        <time>2011-07-24T07:29:36Z</time>
      </trkpt>
      <trkpt lat="44.75914" lon="6.99579">
        <ele>1797.0257568359</ele>
        <time>2011-07-24T07:29:45Z</time>
      </trkpt>
      <trkpt lat="44.75916" lon="6.99582">
        <ele>1797.841796875</ele>
        <time>2011-07-24T07:29:51Z</time>
      </trkpt>
      <trkpt lat="44.75918" lon="6.9958">
        <ele>1798.3880615234</ele>
        <time>2011-07-24T07:29:55Z</time>
      </trkpt>
      <trkpt lat="44.7592" lon="6.99583">
        <ele>1799.4200439453</ele>
        <time>2011-07-24T07:30:02Z</time>
      </trkpt>
      <trkpt lat="44.75917" lon="6.99585">
        <ele>1800.6385498047</ele>
        <time>2011-07-24T07:30:11Z</time>
      </trkpt>
      <trkpt lat="44.75917" lon="6.99595">
        <ele>1802.3944091797</ele>
        <time>2011-07-24T07:30:24Z</time>
      </trkpt>
      <trkpt lat="44.75925" lon="6.996">
        <ele>1804.9217529297</ele>
        <time>2011-07-24T07:30:43Z</time>
      </trkpt>
      <trkpt lat="44.7593" lon="6.99606">
        <ele>1806.9392089844</ele>
        <time>2011-07-24T07:30:58Z</time>
      </trkpt>
      <trkpt lat="44.75922" lon="6.99618">
        <ele>1810.4910888672</ele>
        <time>2011-07-24T07:31:25Z</time>
      </trkpt>
      <trkpt lat="44.7592" lon="6.99623">
        <ele>1811.6059570312</ele>
        <time>2011-07-24T07:31:33Z</time>
      </trkpt>
      <trkpt lat="44.75926" lon="6.99625">
        <ele>1814.2768554688</ele>
        <time>2011-07-24T07:31:53Z</time>
      </trkpt>
      <trkpt lat="44.75926" lon="6.99628">
        <ele>1815.0031738281</ele>
        <time>2011-07-24T07:31:58Z</time>
      </trkpt>
      <trkpt lat="44.75922" lon="6.99631">
        <ele>1816.7410888672</ele>
        <time>2011-07-24T07:32:11Z</time>
      </trkpt>
      <trkpt lat="44.75924" lon="6.99634">
        <ele>1817.5262451172</ele>
        <time>2011-07-24T07:32:16Z</time>
      </trkpt>
      <trkpt lat="44.75924" lon="6.99635">
        <ele>1817.9112548828</ele>
        <time>2011-07-24T07:32:19Z</time>
      </trkpt>
      <trkpt lat="44.75929" lon="6.99634">
        <ele>1819.1879882812</ele>
        <time>2011-07-24T07:32:28Z</time>
      </trkpt>
      <trkpt lat="44.75921" lon="6.99643">
        <ele>1820.4084472656</ele>
        <time>2011-07-24T07:32:37Z</time>
      </trkpt>
      <trkpt lat="44.75922" lon="6.99646">
        <ele>1821.5825195312</ele>
        <time>2011-07-24T07:32:45Z</time>
      </trkpt>
      <trkpt lat="44.75927" lon="6.99642">
        <ele>1824.7774658203</ele>
        <time>2011-07-24T07:33:09Z</time>
      </trkpt>
      <trkpt lat="44.75932" lon="6.99646">
        <ele>1827.6550292969</ele>
        <time>2011-07-24T07:33:31Z</time>
      </trkpt>
      <trkpt lat="44.7594" lon="6.99644">
        <ele>1830.8681640625</ele>
        <time>2011-07-24T07:33:55Z</time>
      </trkpt>
      <trkpt lat="44.75942" lon="6.99644">
        <ele>1834.171875</ele>
        <time>2011-07-24T07:34:20Z</time>
      </trkpt>
      <trkpt lat="44.75947" lon="6.99643">
        <ele>1836.0495605469</ele>
        <time>2011-07-24T07:34:34Z</time>
      </trkpt>
      <trkpt lat="44.75952" lon="6.99644">
        <ele>1838.7943115234</ele>
        <time>2011-07-24T07:34:55Z</time>
      </trkpt>
      <trkpt lat="44.75957" lon="6.99648">
        <ele>1841.9047851562</ele>
        <time>2011-07-24T07:35:18Z</time>
      </trkpt>
      <trkpt lat="44.75962" lon="6.99648">
        <ele>1844.6049804688</ele>
        <time>2011-07-24T07:35:38Z</time>
      </trkpt>
      <trkpt lat="44.7597" lon="6.99649">
        <ele>1847.6662597656</ele>
        <time>2011-07-24T07:36:01Z</time>
      </trkpt>
      <trkpt lat="44.75982" lon="6.99655">
        <ele>1853.2283935547</ele>
        <time>2011-07-24T07:36:43Z</time>
      </trkpt>
      <trkpt lat="44.75999" lon="6.99667">
        <ele>1860.58203125</ele>
        <time>2011-07-24T07:37:39Z</time>
      </trkpt>
      <trkpt lat="44.76022" lon="6.99682">
        <ele>1876.8947753906</ele>
        <time>2011-07-24T07:39:44Z</time>
      </trkpt>
      <trkpt lat="44.76022" lon="6.99695">
        <ele>1878.3067626953</ele>
        <time>2011-07-24T07:39:54Z</time>
      </trkpt>
      <trkpt lat="44.76004" lon="6.99783">
        <ele>1891.0577392578</ele>
        <time>2011-07-24T07:41:32Z</time>
      </trkpt>
      <trkpt lat="44.76008" lon="6.99785">
        <ele>1892.6374511719</ele>
        <time>2011-07-24T07:41:44Z</time>
      </trkpt>
      <trkpt lat="44.76069" lon="6.99749">
        <ele>1910.1076660156</ele>
        <time>2011-07-24T07:43:58Z</time>
      </trkpt>
      <trkpt lat="44.76071" lon="6.99762">
        <ele>1912.0080566406</ele>
        <time>2011-07-24T07:44:12Z</time>
      </trkpt>
      <trkpt lat="44.76042" lon="6.99854">
        <ele>1930.7333984375</ele>
        <time>2011-07-24T07:46:36Z</time>
      </trkpt>
      <trkpt lat="44.7605" lon="6.99856">
        <ele>1931.7567138672</ele>
        <time>2011-07-24T07:46:43Z</time>
      </trkpt>
      <trkpt lat="44.76123" lon="6.99803">
        <ele>1944.4348144531</ele>
        <time>2011-07-24T07:48:21Z</time>
      </trkpt>
      <trkpt lat="44.76124" lon="6.99811">
        <ele>1945.8238525391</ele>
        <time>2011-07-24T07:48:31Z</time>
      </trkpt>
      <trkpt lat="44.76074" lon="6.99948">
        <ele>1959.5943603516</ele>
        <time>2011-07-24T07:50:17Z</time>
      </trkpt>
      <trkpt lat="44.76078" lon="6.99953">
        <ele>1960.3791503906</ele>
        <time>2011-07-24T07:50:22Z</time>
      </trkpt>
      <trkpt lat="44.7616" lon="6.99928">
        <ele>1971.6431884766</ele>
        <time>2011-07-24T07:51:49Z</time>
      </trkpt>
      <trkpt lat="44.76166" lon="6.9993">
        <ele>1972.9146728516</ele>
        <time>2011-07-24T07:51:59Z</time>
      </trkpt>
      <trkpt lat="44.76123" lon="7.00079">
        <ele>1985.9283447266</ele>
        <time>2011-07-24T07:53:39Z</time>
      </trkpt>
      <trkpt lat="44.76125" lon="7.00082">
        <ele>1986.5140380859</ele>
        <time>2011-07-24T07:53:43Z</time>
      </trkpt>
      <trkpt lat="44.76189" lon="7.00035">
        <ele>1995.0842285156</ele>
        <time>2011-07-24T07:54:49Z</time>
      </trkpt>
      <trkpt lat="44.76196" lon="7.00031">
        <ele>1995.9289550781</ele>
        <time>2011-07-24T07:54:56Z</time>
      </trkpt>
      <trkpt lat="44.76197" lon="7.00039">
        <ele>1996.6480712891</ele>
        <time>2011-07-24T07:55:01Z</time>
      </trkpt>
      <trkpt lat="44.7618" lon="7.00155">
        <ele>2004.9150390625</ele>
        <time>2011-07-24T07:56:05Z</time>
      </trkpt>
      <trkpt lat="44.76183" lon="7.00158">
        <ele>2005.4836425781</ele>
        <time>2011-07-24T07:56:10Z</time>
      </trkpt>
      <trkpt lat="44.7626" lon="7.00136">
        <ele>2011.91796875</ele>
        <time>2011-07-24T07:56:59Z</time>
      </trkpt>
      <trkpt lat="44.76265" lon="7.00142">
        <ele>2012.4361572266</ele>
        <time>2011-07-24T07:57:04Z</time>
      </trkpt>
      <trkpt lat="44.76239" lon="7.0028">
        <ele>2018.5023193359</ele>
        <time>2011-07-24T07:57:51Z</time>
      </trkpt>
      <trkpt lat="44.76241" lon="7.00286">
        <ele>2018.8756103516</ele>
        <time>2011-07-24T07:57:54Z</time>
      </trkpt>
      <trkpt lat="44.7631" lon="7.00231">
        <ele>2022.517578125</ele>
        <time>2011-07-24T07:58:22Z</time>
      </trkpt>
      <trkpt lat="44.76313" lon="7.00237">
        <ele>2022.7250976562</ele>
        <time>2011-07-24T07:58:23Z</time>
      </trkpt>
      <trkpt lat="44.76301" lon="7.00324">
        <ele>2025.1156005859</ele>
        <time>2011-07-24T07:58:41Z</time>
      </trkpt>
      <trkpt lat="44.76304" lon="7.00333">
        <ele>2025.2635498047</ele>
        <time>2011-07-24T07:58:43Z</time>
      </trkpt>
      <trkpt lat="44.7635" lon="7.00341">
        <ele>2026.3924560547</ele>
        <time>2011-07-24T07:58:52Z</time>
      </trkpt>
      <trkpt lat="44.76385" lon="7.00359">
        <ele>2027.5576171875</ele>
        <time>2011-07-24T07:59:02Z</time>
      </trkpt>
      <trkpt lat="44.76385" lon="7.00359">
        <ele>2027.5576171875</ele>
        <time>2011-07-24T07:59:03Z</time>
      </trkpt>
      <trkpt lat="44.76386" lon="7.00359">
        <ele>2028.5192871094</ele>
        <time>2011-07-24T07:59:06Z</time>
      </trkpt>
      <trkpt lat="44.76389" lon="7.00357">
        <ele>2029.48046875</ele>
        <time>2011-07-24T07:59:08Z</time>
      </trkpt>
      <trkpt lat="44.76386" lon="7.00366">
        <ele>2005.4475097656</ele>
        <time>2011-07-24T07:59:34Z</time>
      </trkpt>
      <trkpt lat="44.76392" lon="7.00355">
        <ele>2012.1767578125</ele>
        <time>2011-07-24T07:59:49Z</time>
      </trkpt>
      <trkpt lat="44.76394" lon="7.0035">
        <ele>2017.4638671875</ele>
        <time>2011-07-24T07:59:53Z</time>
      </trkpt>
      <trkpt lat="44.76398" lon="7.00338">
        <ele>2022.2705078125</ele>
        <time>2011-07-24T08:00:02Z</time>
      </trkpt>
      <trkpt lat="44.764" lon="7.00333">
        <ele>2025.6350097656</ele>
        <time>2011-07-24T08:00:09Z</time>
      </trkpt>
      <trkpt lat="44.76408" lon="7.00344">
        <ele>2026.1157226562</ele>
        <time>2011-07-24T08:00:21Z</time>
      </trkpt>
      <trkpt lat="44.76405" lon="7.00346">
        <ele>2036.6901855469</ele>
        <time>2011-07-24T08:00:30Z</time>
      </trkpt>
      <trkpt lat="44.76403" lon="7.00337">
        <ele>2046.3037109375</ele>
        <time>2011-07-24T08:00:39Z</time>
      </trkpt>
      <trkpt lat="44.76408" lon="7.00334">
        <ele>2041.9775390625</ele>
        <time>2011-07-24T08:00:47Z</time>
      </trkpt>
      <trkpt lat="44.76407" lon="7.0033">
        <ele>2035.2482910156</ele>
        <time>2011-07-24T08:00:56Z</time>
      </trkpt>
      <trkpt lat="44.76411" lon="7.00327">
        <ele>2032.8449707031</ele>
        <time>2011-07-24T08:01:04Z</time>
      </trkpt>
      <trkpt lat="44.76412" lon="7.00326">
        <ele>2028.9997558594</ele>
        <time>2011-07-24T08:01:23Z</time>
      </trkpt>
      <trkpt lat="44.76417" lon="7.00317">
        <ele>2033.8063964844</ele>
        <time>2011-07-24T08:01:30Z</time>
      </trkpt>
      <trkpt lat="44.76424" lon="7.00313">
        <ele>2034.287109375</ele>
        <time>2011-07-24T08:01:37Z</time>
      </trkpt>
      <trkpt lat="44.76429" lon="7.00312">
        <ele>2036.2097167969</ele>
        <time>2011-07-24T08:01:46Z</time>
      </trkpt>
      <trkpt lat="44.76437" lon="7.00314">
        <ele>2042.4582519531</ele>
        <time>2011-07-24T08:02:05Z</time>
      </trkpt>
      <trkpt lat="44.76441" lon="7.00317">
        <ele>2046.7841796875</ele>
        <time>2011-07-24T08:02:12Z</time>
      </trkpt>
      <trkpt lat="44.7645" lon="7.00316">
        <ele>2057.3586425781</ele>
        <time>2011-07-24T08:02:32Z</time>
      </trkpt>
      <trkpt lat="44.76453" lon="7.00316">
        <ele>2054.474609375</ele>
        <time>2011-07-24T08:02:40Z</time>
      </trkpt>
      <trkpt lat="44.76455" lon="7.00317">
        <ele>2054.9553222656</ele>
        <time>2011-07-24T08:02:47Z</time>
      </trkpt>
      <trkpt lat="44.76456" lon="7.0032">
        <ele>2055.9165039062</ele>
        <time>2011-07-24T08:02:52Z</time>
      </trkpt>
      <trkpt lat="44.76459" lon="7.00325">
        <ele>2054.474609375</ele>
        <time>2011-07-24T08:02:58Z</time>
      </trkpt>
      <trkpt lat="44.7646" lon="7.00327">
        <ele>2054.9553222656</ele>
        <time>2011-07-24T08:03:04Z</time>
      </trkpt>
      <trkpt lat="44.76462" lon="7.00333">
        <ele>2054.474609375</ele>
        <time>2011-07-24T08:03:11Z</time>
      </trkpt>
      <trkpt lat="44.76464" lon="7.00339">
        <ele>2053.5134277344</ele>
        <time>2011-07-24T08:03:18Z</time>
      </trkpt>
      <trkpt lat="44.76466" lon="7.00343">
        <ele>2053.994140625</ele>
        <time>2011-07-24T08:03:21Z</time>
      </trkpt>
      <trkpt lat="44.76468" lon="7.00353">
        <ele>2050.6293945312</ele>
        <time>2011-07-24T08:03:31Z</time>
      </trkpt>
      <trkpt lat="44.76469" lon="7.00358">
        <ele>2051.1101074219</ele>
        <time>2011-07-24T08:03:36Z</time>
      </trkpt>
      <trkpt lat="44.76472" lon="7.00367">
        <ele>2053.5134277344</ele>
        <time>2011-07-24T08:03:45Z</time>
      </trkpt>
      <trkpt lat="44.76474" lon="7.00372">
        <ele>2053.994140625</ele>
        <time>2011-07-24T08:03:52Z</time>
      </trkpt>
      <trkpt lat="44.76477" lon="7.00376">
        <ele>2055.4360351562</ele>
        <time>2011-07-24T08:03:59Z</time>
      </trkpt>
      <trkpt lat="44.7648" lon="7.00381">
        <ele>2056.3972167969</ele>
        <time>2011-07-24T08:04:07Z</time>
      </trkpt>
      <trkpt lat="44.7648" lon="7.00388">
        <ele>2056.3972167969</ele>
        <time>2011-07-24T08:04:16Z</time>
      </trkpt>
      <trkpt lat="44.76484" lon="7.00394">
        <ele>2059.28125</ele>
        <time>2011-07-24T08:04:24Z</time>
      </trkpt>
      <trkpt lat="44.76488" lon="7.004">
        <ele>2065.0493164062</ele>
        <time>2011-07-24T08:04:31Z</time>
      </trkpt>
      <trkpt lat="44.76491" lon="7.00405">
        <ele>2069.3752441406</ele>
        <time>2011-07-24T08:04:39Z</time>
      </trkpt>
      <trkpt lat="44.76492" lon="7.00409">
        <ele>2070.3364257812</ele>
        <time>2011-07-24T08:04:44Z</time>
      </trkpt>
      <trkpt lat="44.76493" lon="7.00414">
        <ele>2072.2590332031</ele>
        <time>2011-07-24T08:04:51Z</time>
      </trkpt>
      <trkpt lat="44.76495" lon="7.00421">
        <ele>2070.3364257812</ele>
        <time>2011-07-24T08:04:56Z</time>
      </trkpt>
      <trkpt lat="44.76495" lon="7.00433">
        <ele>2066.4912109375</ele>
        <time>2011-07-24T08:05:05Z</time>
      </trkpt>
      <trkpt lat="44.76492" lon="7.00442">
        <ele>2066.9719238281</ele>
        <time>2011-07-24T08:05:16Z</time>
      </trkpt>
      <trkpt lat="44.76493" lon="7.00447">
        <ele>2072.2590332031</ele>
        <time>2011-07-24T08:05:22Z</time>
      </trkpt>
      <trkpt lat="44.765" lon="7.00454">
        <ele>2078.98828125</ele>
        <time>2011-07-24T08:05:32Z</time>
      </trkpt>
      <trkpt lat="44.76501" lon="7.00461">
        <ele>2079.4689941406</ele>
        <time>2011-07-24T08:05:38Z</time>
      </trkpt>
      <trkpt lat="44.76502" lon="7.00466">
        <ele>2079.9497070312</ele>
        <time>2011-07-24T08:05:45Z</time>
      </trkpt>
      <trkpt lat="44.76503" lon="7.00472">
        <ele>2080.9111328125</ele>
        <time>2011-07-24T08:05:51Z</time>
      </trkpt>
      <trkpt lat="44.76505" lon="7.00477">
        <ele>2082.3530273438</ele>
        <time>2011-07-24T08:05:57Z</time>
      </trkpt>
      <trkpt lat="44.76505" lon="7.00482">
        <ele>2084.7563476562</ele>
        <time>2011-07-24T08:06:05Z</time>
      </trkpt>
      <trkpt lat="44.76506" lon="7.00494">
        <ele>2080.9111328125</ele>
        <time>2011-07-24T08:06:13Z</time>
      </trkpt>
      <trkpt lat="44.76506" lon="7.00498">
        <ele>2082.3530273438</ele>
        <time>2011-07-24T08:06:18Z</time>
      </trkpt>
      <trkpt lat="44.76507" lon="7.00502">
        <ele>2082.8334960938</ele>
        <time>2011-07-24T08:06:24Z</time>
      </trkpt>
      <trkpt lat="44.76509" lon="7.00504">
        <ele>2084.2756347656</ele>
        <time>2011-07-24T08:06:29Z</time>
      </trkpt>
      <trkpt lat="44.76512" lon="7.0051">
        <ele>2085.2368164062</ele>
        <time>2011-07-24T08:06:35Z</time>
      </trkpt>
      <trkpt lat="44.76515" lon="7.00517">
        <ele>2083.3142089844</ele>
        <time>2011-07-24T08:06:40Z</time>
      </trkpt>
      <trkpt lat="44.76517" lon="7.00522">
        <ele>2082.8334960938</ele>
        <time>2011-07-24T08:06:46Z</time>
      </trkpt>
      <trkpt lat="44.76523" lon="7.00532">
        <ele>2084.7563476562</ele>
        <time>2011-07-24T08:06:55Z</time>
      </trkpt>
      <trkpt lat="44.76529" lon="7.00542">
        <ele>2086.6787109375</ele>
        <time>2011-07-24T08:07:02Z</time>
      </trkpt>
      <trkpt lat="44.76529" lon="7.00555">
        <ele>2086.6787109375</ele>
        <time>2011-07-24T08:07:10Z</time>
      </trkpt>
      <trkpt lat="44.76531" lon="7.0056">
        <ele>2087.6401367188</ele>
        <time>2011-07-24T08:07:15Z</time>
      </trkpt>
      <trkpt lat="44.76533" lon="7.0057">
        <ele>2088.6015625</ele>
        <time>2011-07-24T08:07:23Z</time>
      </trkpt>
      <trkpt lat="44.76537" lon="7.00577">
        <ele>2089.5627441406</ele>
        <time>2011-07-24T08:07:30Z</time>
      </trkpt>
      <trkpt lat="44.7654" lon="7.00583">
        <ele>2091.0046386719</ele>
        <time>2011-07-24T08:07:37Z</time>
      </trkpt>
      <trkpt lat="44.76544" lon="7.00591">
        <ele>2095.8115234375</ele>
        <time>2011-07-24T08:07:45Z</time>
      </trkpt>
      <trkpt lat="44.76545" lon="7.00594">
        <ele>2103.501953125</ele>
        <time>2011-07-24T08:07:50Z</time>
      </trkpt>
      <trkpt lat="44.76545" lon="7.006">
        <ele>2107.8278808594</ele>
        <time>2011-07-24T08:07:55Z</time>
      </trkpt>
      <trkpt lat="44.76549" lon="7.00606">
        <ele>2109.2700195312</ele>
        <time>2011-07-24T08:08:00Z</time>
      </trkpt>
      <trkpt lat="44.7655" lon="7.00609">
        <ele>2108.7893066406</ele>
        <time>2011-07-24T08:08:02Z</time>
      </trkpt>
      <trkpt lat="44.76552" lon="7.00623">
        <ele>2105.9050292969</ele>
        <time>2011-07-24T08:08:10Z</time>
      </trkpt>
      <trkpt lat="44.76556" lon="7.00633">
        <ele>2104.9438476562</ele>
        <time>2011-07-24T08:08:16Z</time>
      </trkpt>
      <trkpt lat="44.76557" lon="7.00641">
        <ele>2100.1374511719</ele>
        <time>2011-07-24T08:08:22Z</time>
      </trkpt>
      <trkpt lat="44.76552" lon="7.00655">
        <ele>2091.0046386719</ele>
        <time>2011-07-24T08:08:33Z</time>
      </trkpt>
      <trkpt lat="44.76552" lon="7.00656">
        <ele>2090.0434570312</ele>
        <time>2011-07-24T08:08:34Z</time>
      </trkpt>
      <trkpt lat="44.76558" lon="7.00666">
        <ele>2091.4853515625</ele>
        <time>2011-07-24T08:08:43Z</time>
      </trkpt>
      <trkpt lat="44.76558" lon="7.00668">
        <ele>2091.9660644531</ele>
        <time>2011-07-24T08:08:45Z</time>
      </trkpt>
      <trkpt lat="44.76562" lon="7.00677">
        <ele>2094.3693847656</ele>
        <time>2011-07-24T08:08:53Z</time>
      </trkpt>
      <trkpt lat="44.76561" lon="7.0068">
        <ele>2095.3308105469</ele>
        <time>2011-07-24T08:08:59Z</time>
      </trkpt>
      <trkpt lat="44.76565" lon="7.00685">
        <ele>2096.2922363281</ele>
        <time>2011-07-24T08:09:05Z</time>
      </trkpt>
      <trkpt lat="44.76568" lon="7.00702">
        <ele>2091.4853515625</ele>
        <time>2011-07-24T08:09:13Z</time>
      </trkpt>
      <trkpt lat="44.7657" lon="7.00709">
        <ele>2093.8889160156</ele>
        <time>2011-07-24T08:09:19Z</time>
      </trkpt>
      <trkpt lat="44.7657" lon="7.0072">
        <ele>2097.2534179688</ele>
        <time>2011-07-24T08:09:29Z</time>
      </trkpt>
      <trkpt lat="44.76571" lon="7.00728">
        <ele>2100.1374511719</ele>
        <time>2011-07-24T08:09:36Z</time>
      </trkpt>
      <trkpt lat="44.76575" lon="7.00733">
        <ele>2103.0212402344</ele>
        <time>2011-07-24T08:09:44Z</time>
      </trkpt>
      <trkpt lat="44.76577" lon="7.00741">
        <ele>2103.501953125</ele>
        <time>2011-07-24T08:09:50Z</time>
      </trkpt>
      <trkpt lat="44.76581" lon="7.0075">
        <ele>2102.5405273438</ele>
        <time>2011-07-24T08:09:58Z</time>
      </trkpt>
      <trkpt lat="44.76583" lon="7.00762">
        <ele>2104.4631347656</ele>
        <time>2011-07-24T08:10:08Z</time>
      </trkpt>
      <trkpt lat="44.76585" lon="7.00769">
        <ele>2107.8278808594</ele>
        <time>2011-07-24T08:10:17Z</time>
      </trkpt>
      <trkpt lat="44.76587" lon="7.00775">
        <ele>2109.7504882812</ele>
        <time>2011-07-24T08:10:26Z</time>
      </trkpt>
      <trkpt lat="44.76589" lon="7.00781">
        <ele>2110.7119140625</ele>
        <time>2011-07-24T08:10:35Z</time>
      </trkpt>
      <trkpt lat="44.76588" lon="7.00787">
        <ele>2112.1538085938</ele>
        <time>2011-07-24T08:10:42Z</time>
      </trkpt>
      <trkpt lat="44.76587" lon="7.00793">
        <ele>2115.0378417969</ele>
        <time>2011-07-24T08:10:48Z</time>
      </trkpt>
      <trkpt lat="44.76585" lon="7.00798">
        <ele>2114.5571289062</ele>
        <time>2011-07-24T08:10:54Z</time>
      </trkpt>
      <trkpt lat="44.76585" lon="7.00802">
        <ele>2114.5571289062</ele>
        <time>2011-07-24T08:10:59Z</time>
      </trkpt>
      <trkpt lat="44.76585" lon="7.0081">
        <ele>2115.0378417969</ele>
        <time>2011-07-24T08:11:08Z</time>
      </trkpt>
      <trkpt lat="44.76585" lon="7.00817">
        <ele>2116.9604492188</ele>
        <time>2011-07-24T08:11:16Z</time>
      </trkpt>
      <trkpt lat="44.76586" lon="7.00821">
        <ele>2120.3249511719</ele>
        <time>2011-07-24T08:11:24Z</time>
      </trkpt>
      <trkpt lat="44.76585" lon="7.00827">
        <ele>2117.9216308594</ele>
        <time>2011-07-24T08:11:30Z</time>
      </trkpt>
      <trkpt lat="44.76588" lon="7.00833">
        <ele>2115.0378417969</ele>
        <time>2011-07-24T08:11:37Z</time>
      </trkpt>
      <trkpt lat="44.76588" lon="7.00843">
        <ele>2112.6345214844</ele>
        <time>2011-07-24T08:11:45Z</time>
      </trkpt>
      <trkpt lat="44.76588" lon="7.00848">
        <ele>2113.115234375</ele>
        <time>2011-07-24T08:11:51Z</time>
      </trkpt>
      <trkpt lat="44.76588" lon="7.00854">
        <ele>2113.595703125</ele>
        <time>2011-07-24T08:11:58Z</time>
      </trkpt>
      <trkpt lat="44.76589" lon="7.00861">
        <ele>2113.115234375</ele>
        <time>2011-07-24T08:12:06Z</time>
      </trkpt>
      <trkpt lat="44.76589" lon="7.00867">
        <ele>2113.595703125</ele>
        <time>2011-07-24T08:12:14Z</time>
      </trkpt>
      <trkpt lat="44.76588" lon="7.00874">
        <ele>2113.595703125</ele>
        <time>2011-07-24T08:12:22Z</time>
      </trkpt>
      <trkpt lat="44.76591" lon="7.0088">
        <ele>2122.7282714844</ele>
        <time>2011-07-24T08:12:29Z</time>
      </trkpt>
      <trkpt lat="44.76595" lon="7.00889">
        <ele>2121.2861328125</ele>
        <time>2011-07-24T08:12:38Z</time>
      </trkpt>
      <trkpt lat="44.76593" lon="7.00896">
        <ele>2121.2861328125</ele>
        <time>2011-07-24T08:12:46Z</time>
      </trkpt>
      <trkpt lat="44.76593" lon="7.00904">
        <ele>2121.7668457031</ele>
        <time>2011-07-24T08:12:53Z</time>
      </trkpt>
      <trkpt lat="44.76595" lon="7.00916">
        <ele>2123.208984375</ele>
        <time>2011-07-24T08:13:02Z</time>
      </trkpt>
      <trkpt lat="44.76596" lon="7.00923">
        <ele>2123.208984375</ele>
        <time>2011-07-24T08:13:07Z</time>
      </trkpt>
      <trkpt lat="44.76602" lon="7.00933">
        <ele>2129.9382324219</ele>
        <time>2011-07-24T08:13:16Z</time>
      </trkpt>
      <trkpt lat="44.76604" lon="7.00941">
        <ele>2132.3415527344</ele>
        <time>2011-07-24T08:13:22Z</time>
      </trkpt>
      <trkpt lat="44.76606" lon="7.00947">
        <ele>2122.2475585938</ele>
        <time>2011-07-24T08:13:30Z</time>
      </trkpt>
      <trkpt lat="44.76602" lon="7.00951">
        <ele>2119.8442382812</ele>
        <time>2011-07-24T08:13:37Z</time>
      </trkpt>
      <trkpt lat="44.76601" lon="7.00951">
        <ele>2119.8442382812</ele>
        <time>2011-07-24T08:13:38Z</time>
      </trkpt>
      <trkpt lat="44.76598" lon="7.00954">
        <ele>2115.5185546875</ele>
        <time>2011-07-24T08:13:41Z</time>
      </trkpt>
      <trkpt lat="44.76595" lon="7.00957">
        <ele>2115.0378417969</ele>
        <time>2011-07-24T08:13:47Z</time>
      </trkpt>
      <trkpt lat="44.76595" lon="7.00959">
        <ele>2115.0378417969</ele>
        <time>2011-07-24T08:13:53Z</time>
      </trkpt>
      <trkpt lat="44.76592" lon="7.00963">
        <ele>2120.8056640625</ele>
        <time>2011-07-24T08:13:58Z</time>
      </trkpt>
      <trkpt lat="44.76592" lon="7.00968">
        <ele>2121.2861328125</ele>
        <time>2011-07-24T08:14:03Z</time>
      </trkpt>
      <trkpt lat="44.76592" lon="7.00969">
        <ele>2120.3249511719</ele>
        <time>2011-07-24T08:14:04Z</time>
      </trkpt>
      <trkpt lat="44.76592" lon="7.00978">
        <ele>2126.0930175781</ele>
        <time>2011-07-24T08:14:10Z</time>
      </trkpt>
      <trkpt lat="44.7659" lon="7.00993">
        <ele>2125.6123046875</ele>
        <time>2011-07-24T08:14:19Z</time>
      </trkpt>
      <trkpt lat="44.76592" lon="7.01001">
        <ele>2133.302734375</ele>
        <time>2011-07-24T08:14:28Z</time>
      </trkpt>
      <trkpt lat="44.7659" lon="7.01008">
        <ele>2132.3415527344</ele>
        <time>2011-07-24T08:14:36Z</time>
      </trkpt>
      <trkpt lat="44.7659" lon="7.01013">
        <ele>2129.4575195312</ele>
        <time>2011-07-24T08:14:43Z</time>
      </trkpt>
      <trkpt lat="44.76587" lon="7.01019">
        <ele>2125.6123046875</ele>
        <time>2011-07-24T08:14:50Z</time>
      </trkpt>
      <trkpt lat="44.76583" lon="7.01026">
        <ele>2128.4963378906</ele>
        <time>2011-07-24T08:14:58Z</time>
      </trkpt>
      <trkpt lat="44.76583" lon="7.01033">
        <ele>2128.4963378906</ele>
        <time>2011-07-24T08:15:03Z</time>
      </trkpt>
      <trkpt lat="44.76582" lon="7.01035">
        <ele>2130.4189453125</ele>
        <time>2011-07-24T08:15:05Z</time>
      </trkpt>
      <trkpt lat="44.7658" lon="7.01043">
        <ele>2131.8608398438</ele>
        <time>2011-07-24T08:15:13Z</time>
      </trkpt>
      <trkpt lat="44.7658" lon="7.0105">
        <ele>2134.2641601562</ele>
        <time>2011-07-24T08:15:20Z</time>
      </trkpt>
      <trkpt lat="44.76579" lon="7.01058">
        <ele>2137.1479492188</ele>
        <time>2011-07-24T08:15:28Z</time>
      </trkpt>
      <trkpt lat="44.76583" lon="7.01066">
        <ele>2138.109375</ele>
        <time>2011-07-24T08:15:36Z</time>
      </trkpt>
      <trkpt lat="44.76583" lon="7.01073">
        <ele>2144.3579101562</ele>
        <time>2011-07-24T08:15:43Z</time>
      </trkpt>
      <trkpt lat="44.76587" lon="7.01077">
        <ele>2148.6838378906</ele>
        <time>2011-07-24T08:15:47Z</time>
      </trkpt>
      <trkpt lat="44.76582" lon="7.01081">
        <ele>2152.0483398438</ele>
        <time>2011-07-24T08:15:52Z</time>
      </trkpt>
      <trkpt lat="44.76576" lon="7.01087">
        <ele>2152.0483398438</ele>
        <time>2011-07-24T08:15:58Z</time>
      </trkpt>
      <trkpt lat="44.76573" lon="7.01091">
        <ele>2152.5290527344</ele>
        <time>2011-07-24T08:16:04Z</time>
      </trkpt>
      <trkpt lat="44.76569" lon="7.01093">
        <ele>2156.3745117188</ele>
        <time>2011-07-24T08:16:12Z</time>
      </trkpt>
      <trkpt lat="44.7657" lon="7.01099">
        <ele>2154.4516601562</ele>
        <time>2011-07-24T08:16:20Z</time>
      </trkpt>
      <trkpt lat="44.7657" lon="7.011">
        <ele>2153.009765625</ele>
        <time>2011-07-24T08:16:21Z</time>
      </trkpt>
      <trkpt lat="44.76567" lon="7.01101">
        <ele>2155.4130859375</ele>
        <time>2011-07-24T08:16:25Z</time>
      </trkpt>
      <trkpt lat="44.76566" lon="7.01113">
        <ele>2150.1259765625</ele>
        <time>2011-07-24T08:16:35Z</time>
      </trkpt>
      <trkpt lat="44.76565" lon="7.01118">
        <ele>2155.4130859375</ele>
        <time>2011-07-24T08:16:41Z</time>
      </trkpt>
      <trkpt lat="44.76565" lon="7.01123">
        <ele>2155.8935546875</ele>
        <time>2011-07-24T08:16:46Z</time>
      </trkpt>
      <trkpt lat="44.76565" lon="7.01132">
        <ele>2156.3745117188</ele>
        <time>2011-07-24T08:16:54Z</time>
      </trkpt>
      <trkpt lat="44.76562" lon="7.01141">
        <ele>2149.1645507812</ele>
        <time>2011-07-24T08:17:02Z</time>
      </trkpt>
      <trkpt lat="44.76559" lon="7.01147">
        <ele>2145.8000488281</ele>
        <time>2011-07-24T08:17:10Z</time>
      </trkpt>
      <trkpt lat="44.76561" lon="7.01149">
        <ele>2146.2807617188</ele>
        <time>2011-07-24T08:17:13Z</time>
      </trkpt>
      <trkpt lat="44.76561" lon="7.01155">
        <ele>2150.6064453125</ele>
        <time>2011-07-24T08:17:20Z</time>
      </trkpt>
      <trkpt lat="44.7656" lon="7.01169">
        <ele>2155.8935546875</ele>
        <time>2011-07-24T08:17:30Z</time>
      </trkpt>
      <trkpt lat="44.76559" lon="7.01171">
        <ele>2155.8935546875</ele>
        <time>2011-07-24T08:17:32Z</time>
      </trkpt>
      <trkpt lat="44.76556" lon="7.01181">
        <ele>2156.3745117188</ele>
        <time>2011-07-24T08:17:41Z</time>
      </trkpt>
      <trkpt lat="44.76555" lon="7.01188">
        <ele>2156.8552246094</ele>
        <time>2011-07-24T08:17:48Z</time>
      </trkpt>
      <trkpt lat="44.76554" lon="7.01195">
        <ele>2156.8552246094</ele>
        <time>2011-07-24T08:17:56Z</time>
      </trkpt>
      <trkpt lat="44.76552" lon="7.01198">
        <ele>2160.2197265625</ele>
        <time>2011-07-24T08:18:03Z</time>
      </trkpt>
      <trkpt lat="44.76548" lon="7.01201">
        <ele>2165.9875488281</ele>
        <time>2011-07-24T08:18:10Z</time>
      </trkpt>
      <trkpt lat="44.76543" lon="7.01205">
        <ele>2170.7941894531</ele>
        <time>2011-07-24T08:18:14Z</time>
      </trkpt>
      <trkpt lat="44.76543" lon="7.01215">
        <ele>2169.3522949219</ele>
        <time>2011-07-24T08:18:21Z</time>
      </trkpt>
      <trkpt lat="44.76541" lon="7.01231">
        <ele>2161.6618652344</ele>
        <time>2011-07-24T08:18:29Z</time>
      </trkpt>
      <trkpt lat="44.76539" lon="7.01238">
        <ele>2160.2197265625</ele>
        <time>2011-07-24T08:18:37Z</time>
      </trkpt>
      <trkpt lat="44.76537" lon="7.01247">
        <ele>2160.7004394531</ele>
        <time>2011-07-24T08:18:44Z</time>
      </trkpt>
      <trkpt lat="44.7653" lon="7.01257">
        <ele>2148.203125</ele>
        <time>2011-07-24T08:18:52Z</time>
      </trkpt>
      <trkpt lat="44.76527" lon="7.01266">
        <ele>2147.2419433594</ele>
        <time>2011-07-24T08:18:59Z</time>
      </trkpt>
      <trkpt lat="44.76525" lon="7.01271">
        <ele>2152.0483398438</ele>
        <time>2011-07-24T08:19:06Z</time>
      </trkpt>
      <trkpt lat="44.76525" lon="7.01278">
        <ele>2153.9711914062</ele>
        <time>2011-07-24T08:19:14Z</time>
      </trkpt>
      <trkpt lat="44.76518" lon="7.01288">
        <ele>2155.8935546875</ele>
        <time>2011-07-24T08:19:20Z</time>
      </trkpt>
      <trkpt lat="44.76518" lon="7.01292">
        <ele>2163.1037597656</ele>
        <time>2011-07-24T08:19:26Z</time>
      </trkpt>
      <trkpt lat="44.76516" lon="7.01299">
        <ele>2169.3522949219</ele>
        <time>2011-07-24T08:19:34Z</time>
      </trkpt>
      <trkpt lat="44.76513" lon="7.01302">
        <ele>2168.3908691406</ele>
        <time>2011-07-24T08:19:39Z</time>
      </trkpt>
      <trkpt lat="44.76514" lon="7.01307">
        <ele>2174.6396484375</ele>
        <time>2011-07-24T08:19:45Z</time>
      </trkpt>
      <trkpt lat="44.76509" lon="7.01315">
        <ele>2179.9267578125</ele>
        <time>2011-07-24T08:19:53Z</time>
      </trkpt>
      <trkpt lat="44.76508" lon="7.01325">
        <ele>2184.2526855469</ele>
        <time>2011-07-24T08:20:02Z</time>
      </trkpt>
      <trkpt lat="44.76505" lon="7.01328">
        <ele>2182.810546875</ele>
        <time>2011-07-24T08:20:04Z</time>
      </trkpt>
      <trkpt lat="44.765" lon="7.01342">
        <ele>2184.2526855469</ele>
        <time>2011-07-24T08:20:14Z</time>
      </trkpt>
      <trkpt lat="44.765" lon="7.01343">
        <ele>2183.7719726562</ele>
        <time>2011-07-24T08:20:15Z</time>
      </trkpt>
      <trkpt lat="44.765" lon="7.01346">
        <ele>2184.7333984375</ele>
        <time>2011-07-24T08:20:17Z</time>
      </trkpt>
      <trkpt lat="44.76497" lon="7.01357">
        <ele>2187.6171875</ele>
        <time>2011-07-24T08:20:26Z</time>
      </trkpt>
      <trkpt lat="44.76495" lon="7.01366">
        <ele>2191.943359375</ele>
        <time>2011-07-24T08:20:34Z</time>
      </trkpt>
      <trkpt lat="44.76493" lon="7.01374">
        <ele>2195.3078613281</ele>
        <time>2011-07-24T08:20:42Z</time>
      </trkpt>
      <trkpt lat="44.76491" lon="7.01381">
        <ele>2195.3078613281</ele>
        <time>2011-07-24T08:20:50Z</time>
      </trkpt>
      <trkpt lat="44.76488" lon="7.01384">
        <ele>2193.8659667969</ele>
        <time>2011-07-24T08:21:05Z</time>
      </trkpt>
      <trkpt lat="44.76486" lon="7.01388">
        <ele>2192.9045410156</ele>
        <time>2011-07-24T08:21:12Z</time>
      </trkpt>
      <trkpt lat="44.76483" lon="7.01392">
        <ele>2192.9045410156</ele>
        <time>2011-07-24T08:21:21Z</time>
      </trkpt>
      <trkpt lat="44.7648" lon="7.01399">
        <ele>2195.7885742188</ele>
        <time>2011-07-24T08:21:30Z</time>
      </trkpt>
      <trkpt lat="44.76476" lon="7.01404">
        <ele>2196.2692871094</ele>
        <time>2011-07-24T08:21:38Z</time>
      </trkpt>
      <trkpt lat="44.76472" lon="7.01412">
        <ele>2195.3078613281</ele>
        <time>2011-07-24T08:21:46Z</time>
      </trkpt>
      <trkpt lat="44.76473" lon="7.01418">
        <ele>2194.8271484375</ele>
        <time>2011-07-24T08:21:54Z</time>
      </trkpt>
      <trkpt lat="44.76474" lon="7.0142">
        <ele>2195.3078613281</ele>
        <time>2011-07-24T08:22:01Z</time>
      </trkpt>
      <trkpt lat="44.7647" lon="7.01429">
        <ele>2196.2692871094</ele>
        <time>2011-07-24T08:22:09Z</time>
      </trkpt>
      <trkpt lat="44.7647" lon="7.0143">
        <ele>2192.9045410156</ele>
        <time>2011-07-24T08:22:15Z</time>
      </trkpt>
      <trkpt lat="44.76469" lon="7.01437">
        <ele>2192.4240722656</ele>
        <time>2011-07-24T08:22:22Z</time>
      </trkpt>
      <trkpt lat="44.76467" lon="7.01442">
        <ele>2193.3852539062</ele>
        <time>2011-07-24T08:22:29Z</time>
      </trkpt>
      <trkpt lat="44.76466" lon="7.01443">
        <ele>2192.4240722656</ele>
        <time>2011-07-24T08:22:31Z</time>
      </trkpt>
      <trkpt lat="44.76461" lon="7.01449">
        <ele>2194.3464355469</ele>
        <time>2011-07-24T08:22:37Z</time>
      </trkpt>
      <trkpt lat="44.76458" lon="7.01454">
        <ele>2197.7111816406</ele>
        <time>2011-07-24T08:22:42Z</time>
      </trkpt>
      <trkpt lat="44.76457" lon="7.01461">
        <ele>2200.1145019531</ele>
        <time>2011-07-24T08:22:49Z</time>
      </trkpt>
      <trkpt lat="44.76455" lon="7.01464">
        <ele>2197.7111816406</ele>
        <time>2011-07-24T08:22:56Z</time>
      </trkpt>
      <trkpt lat="44.76455" lon="7.01472">
        <ele>2200.1145019531</ele>
        <time>2011-07-24T08:23:05Z</time>
      </trkpt>
      <trkpt lat="44.76453" lon="7.0148">
        <ele>2200.1145019531</ele>
        <time>2011-07-24T08:23:14Z</time>
      </trkpt>
      <trkpt lat="44.76451" lon="7.01488">
        <ele>2200.1145019531</ele>
        <time>2011-07-24T08:23:23Z</time>
      </trkpt>
      <trkpt lat="44.76449" lon="7.01496">
        <ele>2201.5563964844</ele>
        <time>2011-07-24T08:23:31Z</time>
      </trkpt>
      <trkpt lat="44.76448" lon="7.01499">
        <ele>2198.1916503906</ele>
        <time>2011-07-24T08:23:37Z</time>
      </trkpt>
      <trkpt lat="44.76447" lon="7.01503">
        <ele>2199.6337890625</ele>
        <time>2011-07-24T08:23:43Z</time>
      </trkpt>
      <trkpt lat="44.76445" lon="7.0151">
        <ele>2205.8823242188</ele>
        <time>2011-07-24T08:23:52Z</time>
      </trkpt>
      <trkpt lat="44.76442" lon="7.01518">
        <ele>2209.7275390625</ele>
        <time>2011-07-24T08:24:02Z</time>
      </trkpt>
      <trkpt lat="44.76439" lon="7.01527">
        <ele>2214.0534667969</ele>
        <time>2011-07-24T08:24:11Z</time>
      </trkpt>
      <trkpt lat="44.76435" lon="7.01535">
        <ele>2216.9375</ele>
        <time>2011-07-24T08:24:20Z</time>
      </trkpt>
      <trkpt lat="44.76431" lon="7.0154">
        <ele>2216.4567871094</ele>
        <time>2011-07-24T08:24:28Z</time>
      </trkpt>
      <trkpt lat="44.76429" lon="7.01543">
        <ele>2215.4956054688</ele>
        <time>2011-07-24T08:24:35Z</time>
      </trkpt>
      <trkpt lat="44.76429" lon="7.01546">
        <ele>2211.650390625</ele>
        <time>2011-07-24T08:24:41Z</time>
      </trkpt>
      <trkpt lat="44.76426" lon="7.01554">
        <ele>2213.5727539062</ele>
        <time>2011-07-24T08:24:50Z</time>
      </trkpt>
      <trkpt lat="44.76423" lon="7.01562">
        <ele>2213.0922851562</ele>
        <time>2011-07-24T08:24:59Z</time>
      </trkpt>
      <trkpt lat="44.76422" lon="7.01567">
        <ele>2213.5727539062</ele>
        <time>2011-07-24T08:25:06Z</time>
      </trkpt>
      <trkpt lat="44.76422" lon="7.01576">
        <ele>2215.4956054688</ele>
        <time>2011-07-24T08:25:14Z</time>
      </trkpt>
      <trkpt lat="44.76421" lon="7.01586">
        <ele>2216.4567871094</ele>
        <time>2011-07-24T08:25:24Z</time>
      </trkpt>
      <trkpt lat="44.76414" lon="7.01596">
        <ele>2218.8601074219</ele>
        <time>2011-07-24T08:25:33Z</time>
      </trkpt>
      <trkpt lat="44.7641" lon="7.01604">
        <ele>2218.8601074219</ele>
        <time>2011-07-24T08:25:40Z</time>
      </trkpt>
      <trkpt lat="44.76411" lon="7.01609">
        <ele>2219.3408203125</ele>
        <time>2011-07-24T08:25:44Z</time>
      </trkpt>
      <trkpt lat="44.76408" lon="7.0162">
        <ele>2220.3022460938</ele>
        <time>2011-07-24T08:25:52Z</time>
      </trkpt>
      <trkpt lat="44.76405" lon="7.01624">
        <ele>2220.3022460938</ele>
        <time>2011-07-24T08:25:56Z</time>
      </trkpt>
      <trkpt lat="44.76402" lon="7.01629">
        <ele>2215.0148925781</ele>
        <time>2011-07-24T08:26:04Z</time>
      </trkpt>
      <trkpt lat="44.764" lon="7.01635">
        <ele>2212.6115722656</ele>
        <time>2011-07-24T08:26:12Z</time>
      </trkpt>
      <trkpt lat="44.76394" lon="7.01643">
        <ele>2210.6889648438</ele>
        <time>2011-07-24T08:26:20Z</time>
      </trkpt>
      <trkpt lat="44.76392" lon="7.01645">
        <ele>2210.6889648438</ele>
        <time>2011-07-24T08:26:22Z</time>
      </trkpt>
      <trkpt lat="44.76391" lon="7.01652">
        <ele>2210.2082519531</ele>
        <time>2011-07-24T08:26:30Z</time>
      </trkpt>
      <trkpt lat="44.76389" lon="7.01655">
        <ele>2211.1696777344</ele>
        <time>2011-07-24T08:26:37Z</time>
      </trkpt>
      <trkpt lat="44.76387" lon="7.01663">
        <ele>2214.5341796875</ele>
        <time>2011-07-24T08:26:44Z</time>
      </trkpt>
      <trkpt lat="44.76381" lon="7.01671">
        <ele>2214.5341796875</ele>
        <time>2011-07-24T08:26:52Z</time>
      </trkpt>
      <trkpt lat="44.76377" lon="7.01673">
        <ele>2213.5727539062</ele>
        <time>2011-07-24T08:26:56Z</time>
      </trkpt>
      <trkpt lat="44.76376" lon="7.01677">
        <ele>2217.8986816406</ele>
        <time>2011-07-24T08:27:04Z</time>
      </trkpt>
      <trkpt lat="44.76374" lon="7.01683">
        <ele>2222.7055664062</ele>
        <time>2011-07-24T08:27:11Z</time>
      </trkpt>
      <trkpt lat="44.76374" lon="7.01687">
        <ele>2223.6667480469</ele>
        <time>2011-07-24T08:27:20Z</time>
      </trkpt>
      <trkpt lat="44.76369" lon="7.01691">
        <ele>2224.6281738281</ele>
        <time>2011-07-24T08:27:28Z</time>
      </trkpt>
      <trkpt lat="44.76365" lon="7.01695">
        <ele>2221.744140625</ele>
        <time>2011-07-24T08:27:36Z</time>
      </trkpt>
      <trkpt lat="44.76366" lon="7.01699">
        <ele>2219.8212890625</ele>
        <time>2011-07-24T08:27:43Z</time>
      </trkpt>
      <trkpt lat="44.76368" lon="7.01704">
        <ele>2222.7055664062</ele>
        <time>2011-07-24T08:27:50Z</time>
      </trkpt>
      <trkpt lat="44.76371" lon="7.01713">
        <ele>2227.5119628906</ele>
        <time>2011-07-24T08:27:59Z</time>
      </trkpt>
      <trkpt lat="44.7637" lon="7.01724">
        <ele>2230.8767089844</ele>
        <time>2011-07-24T08:28:07Z</time>
      </trkpt>
      <trkpt lat="44.76365" lon="7.0173">
        <ele>2228.4733886719</ele>
        <time>2011-07-24T08:28:14Z</time>
      </trkpt>
      <trkpt lat="44.76362" lon="7.01739">
        <ele>2228.4733886719</ele>
        <time>2011-07-24T08:28:24Z</time>
      </trkpt>
      <trkpt lat="44.76361" lon="7.01745">
        <ele>2223.6667480469</ele>
        <time>2011-07-24T08:28:32Z</time>
      </trkpt>
      <trkpt lat="44.76355" lon="7.01757">
        <ele>2225.1086425781</ele>
        <time>2011-07-24T08:28:43Z</time>
      </trkpt>
      <trkpt lat="44.76352" lon="7.01766">
        <ele>2227.0314941406</ele>
        <time>2011-07-24T08:28:51Z</time>
      </trkpt>
      <trkpt lat="44.76349" lon="7.01771">
        <ele>2226.55078125</ele>
        <time>2011-07-24T08:28:59Z</time>
      </trkpt>
      <trkpt lat="44.76346" lon="7.01775">
        <ele>2231.3571777344</ele>
        <time>2011-07-24T08:29:14Z</time>
      </trkpt>
      <trkpt lat="44.76346" lon="7.01777">
        <ele>2236.64453125</ele>
        <time>2011-07-24T08:29:24Z</time>
      </trkpt>
      <trkpt lat="44.76343" lon="7.01782">
        <ele>2236.1640625</ele>
        <time>2011-07-24T08:29:33Z</time>
      </trkpt>
      <trkpt lat="44.76341" lon="7.01783">
        <ele>2237.1252441406</ele>
        <time>2011-07-24T08:29:42Z</time>
      </trkpt>
      <trkpt lat="44.76338" lon="7.01784">
        <ele>2238.5673828125</ele>
        <time>2011-07-24T08:29:49Z</time>
      </trkpt>
      <trkpt lat="44.76334" lon="7.01788">
        <ele>2238.5673828125</ele>
        <time>2011-07-24T08:29:57Z</time>
      </trkpt>
      <trkpt lat="44.7633" lon="7.01791">
        <ele>2239.0478515625</ele>
        <time>2011-07-24T08:30:05Z</time>
      </trkpt>
      <trkpt lat="44.76325" lon="7.018">
        <ele>2241.451171875</ele>
        <time>2011-07-24T08:30:15Z</time>
      </trkpt>
      <trkpt lat="44.7632" lon="7.01807">
        <ele>2244.8156738281</ele>
        <time>2011-07-24T08:30:23Z</time>
      </trkpt>
      <trkpt lat="44.76315" lon="7.01811">
        <ele>2244.3349609375</ele>
        <time>2011-07-24T08:30:32Z</time>
      </trkpt>
      <trkpt lat="44.76311" lon="7.01817">
        <ele>2249.1416015625</ele>
        <time>2011-07-24T08:30:42Z</time>
      </trkpt>
      <trkpt lat="44.76306" lon="7.01819">
        <ele>2246.73828125</ele>
        <time>2011-07-24T08:30:49Z</time>
      </trkpt>
      <trkpt lat="44.76301" lon="7.01823">
        <ele>2246.73828125</ele>
        <time>2011-07-24T08:30:57Z</time>
      </trkpt>
      <trkpt lat="44.76297" lon="7.01831">
        <ele>2250.5834960938</ele>
        <time>2011-07-24T08:31:06Z</time>
      </trkpt>
      <trkpt lat="44.76292" lon="7.01835">
        <ele>2250.1030273438</ele>
        <time>2011-07-24T08:31:13Z</time>
      </trkpt>
      <trkpt lat="44.76286" lon="7.01836">
        <ele>2252.0256347656</ele>
        <time>2011-07-24T08:31:21Z</time>
      </trkpt>
      <trkpt lat="44.7628" lon="7.01836">
        <ele>2252.9870605469</ele>
        <time>2011-07-24T08:31:30Z</time>
      </trkpt>
      <trkpt lat="44.76274" lon="7.01836">
        <ele>2253.9484863281</ele>
        <time>2011-07-24T08:31:38Z</time>
      </trkpt>
      <trkpt lat="44.76268" lon="7.0184">
        <ele>2255.8708496094</ele>
        <time>2011-07-24T08:31:46Z</time>
      </trkpt>
      <trkpt lat="44.76263" lon="7.01845">
        <ele>2258.7548828125</ele>
        <time>2011-07-24T08:31:53Z</time>
      </trkpt>
      <trkpt lat="44.76264" lon="7.01852">
        <ele>2260.6774902344</ele>
        <time>2011-07-24T08:32:01Z</time>
      </trkpt>
      <trkpt lat="44.76262" lon="7.01858">
        <ele>2263.5612792969</ele>
        <time>2011-07-24T08:32:09Z</time>
      </trkpt>
      <trkpt lat="44.76259" lon="7.01862">
        <ele>2262.1193847656</ele>
        <time>2011-07-24T08:32:17Z</time>
      </trkpt>
      <trkpt lat="44.76257" lon="7.01869">
        <ele>2264.0419921875</ele>
        <time>2011-07-24T08:32:23Z</time>
      </trkpt>
      <trkpt lat="44.76252" lon="7.01881">
        <ele>2263.0808105469</ele>
        <time>2011-07-24T08:32:34Z</time>
      </trkpt>
      <trkpt lat="44.7625" lon="7.01891">
        <ele>2263.0808105469</ele>
        <time>2011-07-24T08:32:42Z</time>
      </trkpt>
      <trkpt lat="44.76249" lon="7.019">
        <ele>2263.5612792969</ele>
        <time>2011-07-24T08:32:48Z</time>
      </trkpt>
      <trkpt lat="44.76248" lon="7.01915">
        <ele>2265.0034179688</ele>
        <time>2011-07-24T08:32:58Z</time>
      </trkpt>
      <trkpt lat="44.7625" lon="7.01928">
        <ele>2264.0419921875</ele>
        <time>2011-07-24T08:33:08Z</time>
      </trkpt>
      <trkpt lat="44.76251" lon="7.01934">
        <ele>2264.0419921875</ele>
        <time>2011-07-24T08:33:15Z</time>
      </trkpt>
      <trkpt lat="44.7625" lon="7.01942">
        <ele>2264.5227050781</ele>
        <time>2011-07-24T08:33:22Z</time>
      </trkpt>
      <trkpt lat="44.76251" lon="7.01957">
        <ele>2265.0034179688</ele>
        <time>2011-07-24T08:33:30Z</time>
      </trkpt>
      <trkpt lat="44.7625" lon="7.01965">
        <ele>2264.0419921875</ele>
        <time>2011-07-24T08:33:35Z</time>
      </trkpt>
      <trkpt lat="44.76248" lon="7.0197">
        <ele>2264.0419921875</ele>
        <time>2011-07-24T08:33:39Z</time>
      </trkpt>
      <trkpt lat="44.76245" lon="7.01974">
        <ele>2266.9260253906</ele>
        <time>2011-07-24T08:33:47Z</time>
      </trkpt>
      <trkpt lat="44.76249" lon="7.01977">
        <ele>2266.9260253906</ele>
        <time>2011-07-24T08:33:55Z</time>
      </trkpt>
      <trkpt lat="44.76254" lon="7.0198">
        <ele>2267.4064941406</ele>
        <time>2011-07-24T08:34:02Z</time>
      </trkpt>
      <trkpt lat="44.76259" lon="7.01983">
        <ele>2267.4064941406</ele>
        <time>2011-07-24T08:34:09Z</time>
      </trkpt>
      <trkpt lat="44.76262" lon="7.0199">
        <ele>2265.9645996094</ele>
        <time>2011-07-24T08:34:16Z</time>
      </trkpt>
      <trkpt lat="44.76264" lon="7.01998">
        <ele>2267.8872070312</ele>
        <time>2011-07-24T08:34:23Z</time>
      </trkpt>
      <trkpt lat="44.76267" lon="7.02006">
        <ele>2272.6940917969</ele>
        <time>2011-07-24T08:34:32Z</time>
      </trkpt>
      <trkpt lat="44.76269" lon="7.02014">
        <ele>2276.5393066406</ele>
        <time>2011-07-24T08:34:40Z</time>
      </trkpt>
      <trkpt lat="44.76274" lon="7.02026">
        <ele>2276.05859375</ele>
        <time>2011-07-24T08:34:50Z</time>
      </trkpt>
      <trkpt lat="44.76277" lon="7.02034">
        <ele>2277.5004882812</ele>
        <time>2011-07-24T08:34:58Z</time>
      </trkpt>
      <trkpt lat="44.76276" lon="7.02043">
        <ele>2277.0200195312</ele>
        <time>2011-07-24T08:35:05Z</time>
      </trkpt>
      <trkpt lat="44.76276" lon="7.02047">
        <ele>2276.5393066406</ele>
        <time>2011-07-24T08:35:07Z</time>
      </trkpt>
      <trkpt lat="44.76279" lon="7.02054">
        <ele>2278.9423828125</ele>
        <time>2011-07-24T08:35:14Z</time>
      </trkpt>
      <trkpt lat="44.76284" lon="7.02063">
        <ele>2278.9423828125</ele>
        <time>2011-07-24T08:35:24Z</time>
      </trkpt>
      <trkpt lat="44.76287" lon="7.02071">
        <ele>2280.865234375</ele>
        <time>2011-07-24T08:35:31Z</time>
      </trkpt>
      <trkpt lat="44.76292" lon="7.02082">
        <ele>2280.3845214844</ele>
        <time>2011-07-24T08:35:40Z</time>
      </trkpt>
      <trkpt lat="44.76292" lon="7.02083">
        <ele>2280.3845214844</ele>
        <time>2011-07-24T08:35:41Z</time>
      </trkpt>
      <trkpt lat="44.76296" lon="7.02092">
        <ele>2280.865234375</ele>
        <time>2011-07-24T08:35:49Z</time>
      </trkpt>
      <trkpt lat="44.76297" lon="7.02103">
        <ele>2281.345703125</ele>
        <time>2011-07-24T08:35:58Z</time>
      </trkpt>
      <trkpt lat="44.76302" lon="7.02108">
        <ele>2283.2683105469</ele>
        <time>2011-07-24T08:36:05Z</time>
      </trkpt>
      <trkpt lat="44.76307" lon="7.02115">
        <ele>2283.7490234375</ele>
        <time>2011-07-24T08:36:13Z</time>
      </trkpt>
      <trkpt lat="44.76312" lon="7.02127">
        <ele>2283.2683105469</ele>
        <time>2011-07-24T08:36:22Z</time>
      </trkpt>
      <trkpt lat="44.76314" lon="7.02133">
        <ele>2283.2683105469</ele>
        <time>2011-07-24T08:36:28Z</time>
      </trkpt>
      <trkpt lat="44.76318" lon="7.02136">
        <ele>2284.7106933594</ele>
        <time>2011-07-24T08:36:34Z</time>
      </trkpt>
      <trkpt lat="44.76319" lon="7.02139">
        <ele>2286.1525878906</ele>
        <time>2011-07-24T08:36:40Z</time>
      </trkpt>
      <trkpt lat="44.76323" lon="7.02147">
        <ele>2287.1137695312</ele>
        <time>2011-07-24T08:36:46Z</time>
      </trkpt>
      <trkpt lat="44.76323" lon="7.02148">
        <ele>2288.0751953125</ele>
        <time>2011-07-24T08:36:47Z</time>
      </trkpt>
      <trkpt lat="44.76329" lon="7.02155">
        <ele>2288.5559082031</ele>
        <time>2011-07-24T08:36:54Z</time>
      </trkpt>
      <trkpt lat="44.76333" lon="7.0216">
        <ele>2289.5170898438</ele>
        <time>2011-07-24T08:37:00Z</time>
      </trkpt>
      <trkpt lat="44.76338" lon="7.02164">
        <ele>2290.958984375</ele>
        <time>2011-07-24T08:37:08Z</time>
      </trkpt>
      <trkpt lat="44.76345" lon="7.0217">
        <ele>2292.4011230469</ele>
        <time>2011-07-24T08:37:15Z</time>
      </trkpt>
      <trkpt lat="44.76354" lon="7.02177">
        <ele>2291.4396972656</ele>
        <time>2011-07-24T08:37:24Z</time>
      </trkpt>
      <trkpt lat="44.76356" lon="7.02183">
        <ele>2292.8815917969</ele>
        <time>2011-07-24T08:37:31Z</time>
      </trkpt>
      <trkpt lat="44.76359" lon="7.02184">
        <ele>2293.8430175781</ele>
        <time>2011-07-24T08:37:37Z</time>
      </trkpt>
      <trkpt lat="44.76366" lon="7.02188">
        <ele>2292.8815917969</ele>
        <time>2011-07-24T08:37:43Z</time>
      </trkpt>
      <trkpt lat="44.76371" lon="7.02196">
        <ele>2293.8430175781</ele>
        <time>2011-07-24T08:37:50Z</time>
      </trkpt>
      <trkpt lat="44.76374" lon="7.02201">
        <ele>2291.9204101562</ele>
        <time>2011-07-24T08:37:55Z</time>
      </trkpt>
      <trkpt lat="44.76377" lon="7.02205">
        <ele>2291.9204101562</ele>
        <time>2011-07-24T08:37:58Z</time>
      </trkpt>
      <trkpt lat="44.76381" lon="7.02215">
        <ele>2292.8815917969</ele>
        <time>2011-07-24T08:38:07Z</time>
      </trkpt>
      <trkpt lat="44.76384" lon="7.02217">
        <ele>2293.8430175781</ele>
        <time>2011-07-24T08:38:11Z</time>
      </trkpt>
      <trkpt lat="44.76388" lon="7.02226">
        <ele>2294.3234863281</ele>
        <time>2011-07-24T08:38:19Z</time>
      </trkpt>
      <trkpt lat="44.76389" lon="7.02232">
        <ele>2293.8430175781</ele>
        <time>2011-07-24T08:38:23Z</time>
      </trkpt>
      <trkpt lat="44.76391" lon="7.02235">
        <ele>2294.8041992188</ele>
        <time>2011-07-24T08:38:27Z</time>
      </trkpt>
      <trkpt lat="44.764" lon="7.02244">
        <ele>2297.2075195312</ele>
        <time>2011-07-24T08:38:35Z</time>
      </trkpt>
      <trkpt lat="44.76403" lon="7.02247">
        <ele>2298.1687011719</ele>
        <time>2011-07-24T08:38:41Z</time>
      </trkpt>
      <trkpt lat="44.76407" lon="7.02255">
        <ele>2297.6882324219</ele>
        <time>2011-07-24T08:38:50Z</time>
      </trkpt>
      <trkpt lat="44.76416" lon="7.02264">
        <ele>2298.1687011719</ele>
        <time>2011-07-24T08:38:57Z</time>
      </trkpt>
      <trkpt lat="44.7642" lon="7.02275">
        <ele>2299.6108398438</ele>
        <time>2011-07-24T08:39:05Z</time>
      </trkpt>
      <trkpt lat="44.76426" lon="7.02284">
        <ele>2298.1687011719</ele>
        <time>2011-07-24T08:39:12Z</time>
      </trkpt>
      <trkpt lat="44.76433" lon="7.02292">
        <ele>2298.6494140625</ele>
        <time>2011-07-24T08:39:20Z</time>
      </trkpt>
      <trkpt lat="44.7644" lon="7.02297">
        <ele>2300.091796875</ele>
        <time>2011-07-24T08:39:27Z</time>
      </trkpt>
      <trkpt lat="44.76448" lon="7.02304">
        <ele>2299.6108398438</ele>
        <time>2011-07-24T08:39:35Z</time>
      </trkpt>
      <trkpt lat="44.76453" lon="7.02311">
        <ele>2298.6494140625</ele>
        <time>2011-07-24T08:39:42Z</time>
      </trkpt>
      <trkpt lat="44.76461" lon="7.02319">
        <ele>2302.4948730469</ele>
        <time>2011-07-24T08:39:50Z</time>
      </trkpt>
      <trkpt lat="44.76462" lon="7.02324">
        <ele>2302.0141601562</ele>
        <time>2011-07-24T08:39:53Z</time>
      </trkpt>
      <trkpt lat="44.76462" lon="7.02331">
        <ele>2299.6108398438</ele>
        <time>2011-07-24T08:39:59Z</time>
      </trkpt>
      <trkpt lat="44.76464" lon="7.02339">
        <ele>2301.0529785156</ele>
        <time>2011-07-24T08:40:07Z</time>
      </trkpt>
      <trkpt lat="44.76465" lon="7.0234">
        <ele>2302.4948730469</ele>
        <time>2011-07-24T08:40:10Z</time>
      </trkpt>
      <trkpt lat="44.76464" lon="7.0234">
        <ele>2307.3015136719</ele>
        <time>2011-07-24T08:40:18Z</time>
      </trkpt>
      <trkpt lat="44.76467" lon="7.02341">
        <ele>2307.7822265625</ele>
        <time>2011-07-24T08:40:27Z</time>
      </trkpt>
      <trkpt lat="44.76465" lon="7.02338">
        <ele>2304.8981933594</ele>
        <time>2011-07-24T08:40:54Z</time>
      </trkpt>
      <trkpt lat="44.76466" lon="7.02337">
        <ele>2309.7045898438</ele>
        <time>2011-07-24T08:41:01Z</time>
      </trkpt>
      <trkpt lat="44.7647" lon="7.02339">
        <ele>2318.3566894531</ele>
        <time>2011-07-24T08:41:07Z</time>
      </trkpt>
      <trkpt lat="44.76469" lon="7.02336">
        <ele>2318.8374023438</ele>
        <time>2011-07-24T08:41:15Z</time>
      </trkpt>
      <trkpt lat="44.76469" lon="7.02334">
        <ele>2318.8374023438</ele>
        <time>2011-07-24T08:41:23Z</time>
      </trkpt>
      <trkpt lat="44.76473" lon="7.02332">
        <ele>2314.9919433594</ele>
        <time>2011-07-24T08:41:39Z</time>
      </trkpt>
      <trkpt lat="44.7648" lon="7.02334">
        <ele>2315.953125</ele>
        <time>2011-07-24T08:41:58Z</time>
      </trkpt>
      <trkpt lat="44.76477" lon="7.02336">
        <ele>2311.1467285156</ele>
        <time>2011-07-24T08:42:10Z</time>
      </trkpt>
      <trkpt lat="44.76472" lon="7.02338">
        <ele>2308.2626953125</ele>
        <time>2011-07-24T08:42:16Z</time>
      </trkpt>
      <trkpt lat="44.76471" lon="7.02338">
        <ele>2305.859375</ele>
        <time>2011-07-24T08:42:33Z</time>
      </trkpt>
      <trkpt lat="44.76473" lon="7.02338">
        <ele>2303.9370117188</ele>
        <time>2011-07-24T08:42:42Z</time>
      </trkpt>
      <trkpt lat="44.76469" lon="7.02337">
        <ele>2305.37890625</ele>
        <time>2011-07-24T08:42:51Z</time>
      </trkpt>
      <trkpt lat="44.76451" lon="7.02334">
        <ele>2293.3623046875</ele>
        <time>2011-07-24T08:43:14Z</time>
      </trkpt>
      <trkpt lat="44.76456" lon="7.02336">
        <ele>2291.9204101562</ele>
        <time>2011-07-24T08:43:20Z</time>
      </trkpt>
      <trkpt lat="44.76458" lon="7.0234">
        <ele>2297.2075195312</ele>
        <time>2011-07-24T08:43:49Z</time>
      </trkpt>
      <trkpt lat="44.76465" lon="7.0234">
        <ele>2285.1911621094</ele>
        <time>2011-07-24T08:44:01Z</time>
      </trkpt>
      <trkpt lat="44.76476" lon="7.02334">
        <ele>2288.5559082031</ele>
        <time>2011-07-24T08:44:54Z</time>
      </trkpt>
      <trkpt lat="44.76473" lon="7.02333">
        <ele>2296.2463378906</ele>
        <time>2011-07-24T08:45:17Z</time>
      </trkpt>
      <trkpt lat="44.76474" lon="7.02329">
        <ele>2302.0141601562</ele>
        <time>2011-07-24T08:45:54Z</time>
      </trkpt>
      <trkpt lat="44.76476" lon="7.02331">
        <ele>2299.1301269531</ele>
        <time>2011-07-24T08:46:00Z</time>
      </trkpt>
      <trkpt lat="44.76479" lon="7.02328">
        <ele>2289.0363769531</ele>
        <time>2011-07-24T08:46:10Z</time>
      </trkpt>
      <trkpt lat="44.76476" lon="7.02331">
        <ele>2302.0141601562</ele>
        <time>2011-07-24T08:48:10Z</time>
      </trkpt>
      <trkpt lat="44.76475" lon="7.02331">
        <ele>2302.4948730469</ele>
        <time>2011-07-24T08:48:19Z</time>
      </trkpt>
      <trkpt lat="44.7647" lon="7.02334">
        <ele>2308.2626953125</ele>
        <time>2011-07-24T08:48:24Z</time>
      </trkpt>
      <trkpt lat="44.76471" lon="7.02335">
        <ele>2308.7434082031</ele>
        <time>2011-07-24T08:48:30Z</time>
      </trkpt>
      <trkpt lat="44.76474" lon="7.02336">
        <ele>2309.2241210938</ele>
        <time>2011-07-24T08:48:39Z</time>
      </trkpt>
      <trkpt lat="44.76468" lon="7.0234">
        <ele>2308.2626953125</ele>
        <time>2011-07-24T08:49:05Z</time>
      </trkpt>
      <trkpt lat="44.76469" lon="7.0234">
        <ele>2309.2241210938</ele>
        <time>2011-07-24T08:49:11Z</time>
      </trkpt>
      <trkpt lat="44.76481" lon="7.02328">
        <ele>2291.4396972656</ele>
        <time>2011-07-24T08:49:56Z</time>
      </trkpt>
      <trkpt lat="44.76478" lon="7.02331">
        <ele>2296.2463378906</ele>
        <time>2011-07-24T08:50:05Z</time>
      </trkpt>
      <trkpt lat="44.76497" lon="7.02331">
        <ele>2288.5559082031</ele>
        <time>2011-07-24T08:51:07Z</time>
      </trkpt>
      <trkpt lat="44.76487" lon="7.02334">
        <ele>2295.765625</ele>
        <time>2011-07-24T08:51:25Z</time>
      </trkpt>
      <trkpt lat="44.76479" lon="7.02339">
        <ele>2305.37890625</ele>
        <time>2011-07-24T08:51:35Z</time>
      </trkpt>
      <trkpt lat="44.76483" lon="7.02331">
        <ele>2294.8041992188</ele>
        <time>2011-07-24T08:51:44Z</time>
      </trkpt>
      <trkpt lat="44.76493" lon="7.0232">
        <ele>2290.958984375</ele>
        <time>2011-07-24T08:51:59Z</time>
      </trkpt>
      <trkpt lat="44.76482" lon="7.02323">
        <ele>2291.9204101562</ele>
        <time>2011-07-24T08:52:05Z</time>
      </trkpt>
      <trkpt lat="44.76482" lon="7.02322">
        <ele>2288.5559082031</ele>
        <time>2011-07-24T08:52:11Z</time>
      </trkpt>
      <trkpt lat="44.76476" lon="7.02326">
        <ele>2289.5170898438</ele>
        <time>2011-07-24T08:52:20Z</time>
      </trkpt>
      <trkpt lat="44.76472" lon="7.02328">
        <ele>2290.958984375</ele>
        <time>2011-07-24T08:52:25Z</time>
      </trkpt>
      <trkpt lat="44.7647" lon="7.02329">
        <ele>2292.8815917969</ele>
        <time>2011-07-24T08:52:33Z</time>
      </trkpt>
      <trkpt lat="44.76475" lon="7.02333">
        <ele>2295.765625</ele>
        <time>2011-07-24T08:52:44Z</time>
      </trkpt>
      <trkpt lat="44.7647" lon="7.02333">
        <ele>2295.2849121094</ele>
        <time>2011-07-24T08:52:52Z</time>
      </trkpt>
      <trkpt lat="44.76468" lon="7.02334">
        <ele>2294.3234863281</ele>
        <time>2011-07-24T08:52:59Z</time>
      </trkpt>
      <trkpt lat="44.76477" lon="7.02335">
        <ele>2295.765625</ele>
        <time>2011-07-24T08:53:20Z</time>
      </trkpt>
      <trkpt lat="44.76481" lon="7.02335">
        <ele>2292.8815917969</ele>
        <time>2011-07-24T08:53:32Z</time>
      </trkpt>
      <trkpt lat="44.76484" lon="7.02334">
        <ele>2289.5170898438</ele>
        <time>2011-07-24T08:53:39Z</time>
      </trkpt>
      <trkpt lat="44.76485" lon="7.02334">
        <ele>2291.4396972656</ele>
        <time>2011-07-24T08:53:44Z</time>
      </trkpt>
      <trkpt lat="44.76484" lon="7.02334">
        <ele>2292.8815917969</ele>
        <time>2011-07-24T08:53:45Z</time>
      </trkpt>
      <trkpt lat="44.76482" lon="7.02335">
        <ele>2295.765625</ele>
        <time>2011-07-24T08:53:51Z</time>
      </trkpt>
      <trkpt lat="44.76468" lon="7.02341">
        <ele>2309.7045898438</ele>
        <time>2011-07-24T08:54:21Z</time>
      </trkpt>
      <trkpt lat="44.76467" lon="7.02342">
        <ele>2314.5112304688</ele>
        <time>2011-07-24T08:54:26Z</time>
      </trkpt>
      <trkpt lat="44.76466" lon="7.02344">
        <ele>2315.47265625</ele>
        <time>2011-07-24T08:55:01Z</time>
      </trkpt>
      <trkpt lat="44.76472" lon="7.02341">
        <ele>2310.666015625</ele>
        <time>2011-07-24T08:55:09Z</time>
      </trkpt>
      <trkpt lat="44.76479" lon="7.02335">
        <ele>2297.2075195312</ele>
        <time>2011-07-24T08:55:22Z</time>
      </trkpt>
      <trkpt lat="44.76476" lon="7.02338">
        <ele>2293.3623046875</ele>
        <time>2011-07-24T08:55:32Z</time>
      </trkpt>
      <trkpt lat="44.76468" lon="7.02344">
        <ele>2303.4562988281</ele>
        <time>2011-07-24T08:55:45Z</time>
      </trkpt>
      <trkpt lat="44.76471" lon="7.02346">
        <ele>2307.7822265625</ele>
        <time>2011-07-24T08:55:52Z</time>
      </trkpt>
      <trkpt lat="44.76472" lon="7.02347">
        <ele>2313.5498046875</ele>
        <time>2011-07-24T08:56:16Z</time>
      </trkpt>
      <trkpt lat="44.76463" lon="7.0235">
        <ele>2307.3015136719</ele>
        <time>2011-07-24T08:56:25Z</time>
      </trkpt>
      <trkpt lat="44.76462" lon="7.0235">
        <ele>2306.8208007812</ele>
        <time>2011-07-24T08:56:26Z</time>
      </trkpt>
      <trkpt lat="44.76459" lon="7.0235">
        <ele>2304.8981933594</ele>
        <time>2011-07-24T08:56:28Z</time>
      </trkpt>
      <trkpt lat="44.76463" lon="7.02348">
        <ele>2302.4948730469</ele>
        <time>2011-07-24T08:56:36Z</time>
      </trkpt>
      <trkpt lat="44.76464" lon="7.02348">
        <ele>2301.0529785156</ele>
        <time>2011-07-24T08:56:43Z</time>
      </trkpt>
      <trkpt lat="44.76459" lon="7.02351">
        <ele>2299.6108398438</ele>
        <time>2011-07-24T08:56:55Z</time>
      </trkpt>
      <trkpt lat="44.76455" lon="7.02353">
        <ele>2302.0141601562</ele>
        <time>2011-07-24T08:57:04Z</time>
      </trkpt>
      <trkpt lat="44.76462" lon="7.02342">
        <ele>2305.37890625</ele>
        <time>2011-07-24T08:57:58Z</time>
      </trkpt>
      <trkpt lat="44.76471" lon="7.02344">
        <ele>2299.6108398438</ele>
        <time>2011-07-24T08:58:05Z</time>
      </trkpt>
      <trkpt lat="44.76488" lon="7.02349">
        <ele>2293.8430175781</ele>
        <time>2011-07-24T08:58:14Z</time>
      </trkpt>
      <trkpt lat="44.76492" lon="7.02352">
        <ele>2292.8815917969</ele>
        <time>2011-07-24T08:58:18Z</time>
      </trkpt>
      <trkpt lat="44.76497" lon="7.02356">
        <ele>2292.4011230469</ele>
        <time>2011-07-24T08:58:23Z</time>
      </trkpt>
      <trkpt lat="44.76499" lon="7.02359">
        <ele>2290.958984375</ele>
        <time>2011-07-24T08:58:26Z</time>
      </trkpt>
      <trkpt lat="44.76503" lon="7.02366">
        <ele>2288.0751953125</ele>
        <time>2011-07-24T08:58:32Z</time>
      </trkpt>
      <trkpt lat="44.76506" lon="7.02372">
        <ele>2288.0751953125</ele>
        <time>2011-07-24T08:58:38Z</time>
      </trkpt>
      <trkpt lat="44.7651" lon="7.02376">
        <ele>2285.671875</ele>
        <time>2011-07-24T08:58:42Z</time>
      </trkpt>
      <trkpt lat="44.76515" lon="7.02382">
        <ele>2282.3071289062</ele>
        <time>2011-07-24T08:58:49Z</time>
      </trkpt>
      <trkpt lat="44.76522" lon="7.02385">
        <ele>2279.4230957031</ele>
        <time>2011-07-24T08:58:55Z</time>
      </trkpt>
      <trkpt lat="44.76523" lon="7.02388">
        <ele>2277.9812011719</ele>
        <time>2011-07-24T08:58:58Z</time>
      </trkpt>
      <trkpt lat="44.76527" lon="7.02396">
        <ele>2277.5004882812</ele>
        <time>2011-07-24T08:59:04Z</time>
      </trkpt>
      <trkpt lat="44.76534" lon="7.02403">
        <ele>2276.5393066406</ele>
        <time>2011-07-24T08:59:11Z</time>
      </trkpt>
      <trkpt lat="44.76538" lon="7.02407">
        <ele>2276.05859375</ele>
        <time>2011-07-24T08:59:16Z</time>
      </trkpt>
      <trkpt lat="44.76547" lon="7.02409">
        <ele>2275.0971679688</ele>
        <time>2011-07-24T08:59:23Z</time>
      </trkpt>
      <trkpt lat="44.76554" lon="7.0241">
        <ele>2271.251953125</ele>
        <time>2011-07-24T08:59:29Z</time>
      </trkpt>
      <trkpt lat="44.76554" lon="7.02411">
        <ele>2271.251953125</ele>
        <time>2011-07-24T08:59:30Z</time>
      </trkpt>
      <trkpt lat="44.7656" lon="7.02418">
        <ele>2270.2907714844</ele>
        <time>2011-07-24T08:59:37Z</time>
      </trkpt>
      <trkpt lat="44.76566" lon="7.02422">
        <ele>2269.3295898438</ele>
        <time>2011-07-24T08:59:41Z</time>
      </trkpt>
      <trkpt lat="44.7657" lon="7.02423">
        <ele>2268.3681640625</ele>
        <time>2011-07-24T08:59:44Z</time>
      </trkpt>
      <trkpt lat="44.76576" lon="7.02425">
        <ele>2263.5612792969</ele>
        <time>2011-07-24T08:59:48Z</time>
      </trkpt>
      <trkpt lat="44.7658" lon="7.02432">
        <ele>2261.158203125</ele>
        <time>2011-07-24T08:59:55Z</time>
      </trkpt>
      <trkpt lat="44.76586" lon="7.0244">
        <ele>2258.7548828125</ele>
        <time>2011-07-24T09:00:02Z</time>
      </trkpt>
      <trkpt lat="44.76593" lon="7.02451">
        <ele>2257.3129882812</ele>
        <time>2011-07-24T09:00:10Z</time>
      </trkpt>
      <trkpt lat="44.76606" lon="7.02456">
        <ele>2241.9318847656</ele>
        <time>2011-07-24T09:00:18Z</time>
      </trkpt>
      <trkpt lat="44.76611" lon="7.02462">
        <ele>2242.4125976562</ele>
        <time>2011-07-24T09:00:24Z</time>
      </trkpt>
      <trkpt lat="44.76616" lon="7.02469">
        <ele>2242.4125976562</ele>
        <time>2011-07-24T09:00:30Z</time>
      </trkpt>
      <trkpt lat="44.76617" lon="7.02471">
        <ele>2242.4125976562</ele>
        <time>2011-07-24T09:00:31Z</time>
      </trkpt>
      <trkpt lat="44.76621" lon="7.02483">
        <ele>2245.2963867188</ele>
        <time>2011-07-24T09:00:39Z</time>
      </trkpt>
      <trkpt lat="44.76628" lon="7.02492">
        <ele>2244.8156738281</ele>
        <time>2011-07-24T09:00:47Z</time>
      </trkpt>
      <trkpt lat="44.76633" lon="7.02497">
        <ele>2246.2578125</ele>
        <time>2011-07-24T09:00:53Z</time>
      </trkpt>
      <trkpt lat="44.76634" lon="7.02497">
        <ele>2245.7770996094</ele>
        <time>2011-07-24T09:00:54Z</time>
      </trkpt>
      <trkpt lat="44.76636" lon="7.02503">
        <ele>2253.9484863281</ele>
        <time>2011-07-24T09:00:59Z</time>
      </trkpt>
      <trkpt lat="44.76643" lon="7.02507">
        <ele>2253.4677734375</ele>
        <time>2011-07-24T09:01:07Z</time>
      </trkpt>
      <trkpt lat="44.76644" lon="7.02511">
        <ele>2255.8708496094</ele>
        <time>2011-07-24T09:01:13Z</time>
      </trkpt>
      <trkpt lat="44.76647" lon="7.02515">
        <ele>2254.4289550781</ele>
        <time>2011-07-24T09:01:22Z</time>
      </trkpt>
      <trkpt lat="44.76644" lon="7.02521">
        <ele>2255.3903808594</ele>
        <time>2011-07-24T09:01:28Z</time>
      </trkpt>
      <trkpt lat="44.76644" lon="7.02517">
        <ele>2243.3737792969</ele>
        <time>2011-07-24T09:01:49Z</time>
      </trkpt>
      <trkpt lat="44.76641" lon="7.02522">
        <ele>2249.6223144531</ele>
        <time>2011-07-24T09:01:57Z</time>
      </trkpt>
      <trkpt lat="44.76642" lon="7.02522">
        <ele>2251.544921875</ele>
        <time>2011-07-24T09:02:12Z</time>
      </trkpt>
      <trkpt lat="44.76643" lon="7.02522">
        <ele>2251.544921875</ele>
        <time>2011-07-24T09:02:13Z</time>
      </trkpt>
      <trkpt lat="44.76646" lon="7.0252">
        <ele>2249.6223144531</ele>
        <time>2011-07-24T09:02:15Z</time>
      </trkpt>
      <trkpt lat="44.76651" lon="7.02519">
        <ele>2249.1416015625</ele>
        <time>2011-07-24T09:02:22Z</time>
      </trkpt>
      <trkpt lat="44.76654" lon="7.02517">
        <ele>2252.9870605469</ele>
        <time>2011-07-24T09:02:30Z</time>
      </trkpt>
      <trkpt lat="44.76656" lon="7.02515">
        <ele>2255.3903808594</ele>
        <time>2011-07-24T09:02:36Z</time>
      </trkpt>
      <trkpt lat="44.76659" lon="7.02513">
        <ele>2257.7937011719</ele>
        <time>2011-07-24T09:02:41Z</time>
      </trkpt>
      <trkpt lat="44.76664" lon="7.02513">
        <ele>2260.6774902344</ele>
        <time>2011-07-24T09:02:46Z</time>
      </trkpt>
      <trkpt lat="44.76664" lon="7.02516">
        <ele>2256.8322753906</ele>
        <time>2011-07-24T09:02:51Z</time>
      </trkpt>
      <trkpt lat="44.76665" lon="7.02523">
        <ele>2252.0256347656</ele>
        <time>2011-07-24T09:02:58Z</time>
      </trkpt>
      <trkpt lat="44.76672" lon="7.02537">
        <ele>2250.1030273438</ele>
        <time>2011-07-24T09:03:12Z</time>
      </trkpt>
      <trkpt lat="44.76672" lon="7.02539">
        <ele>2247.2189941406</ele>
        <time>2011-07-24T09:03:17Z</time>
      </trkpt>
      <trkpt lat="44.76671" lon="7.02537">
        <ele>2249.1416015625</ele>
        <time>2011-07-24T09:03:24Z</time>
      </trkpt>
      <trkpt lat="44.76666" lon="7.02541">
        <ele>2258.2741699219</ele>
        <time>2011-07-24T09:03:34Z</time>
      </trkpt>
      <trkpt lat="44.76668" lon="7.02539">
        <ele>2258.7548828125</ele>
        <time>2011-07-24T09:03:41Z</time>
      </trkpt>
      <trkpt lat="44.7667" lon="7.02537">
        <ele>2257.3129882812</ele>
        <time>2011-07-24T09:03:50Z</time>
      </trkpt>
      <trkpt lat="44.76672" lon="7.02537">
        <ele>2257.7937011719</ele>
        <time>2011-07-24T09:03:57Z</time>
      </trkpt>
      <trkpt lat="44.76675" lon="7.02536">
        <ele>2253.4677734375</ele>
        <time>2011-07-24T09:04:00Z</time>
      </trkpt>
      <trkpt lat="44.76682" lon="7.02533">
        <ele>2252.0256347656</ele>
        <time>2011-07-24T09:04:05Z</time>
      </trkpt>
      <trkpt lat="44.76684" lon="7.02534">
        <ele>2250.1030273438</ele>
        <time>2011-07-24T09:04:08Z</time>
      </trkpt>
      <trkpt lat="44.76688" lon="7.02537">
        <ele>2244.8156738281</ele>
        <time>2011-07-24T09:04:14Z</time>
      </trkpt>
      <trkpt lat="44.76692" lon="7.0254">
        <ele>2241.451171875</ele>
        <time>2011-07-24T09:04:18Z</time>
      </trkpt>
      <trkpt lat="44.76701" lon="7.02551">
        <ele>2235.6831054688</ele>
        <time>2011-07-24T09:04:26Z</time>
      </trkpt>
      <trkpt lat="44.76696" lon="7.02558">
        <ele>2240.4897460938</ele>
        <time>2011-07-24T09:04:33Z</time>
      </trkpt>
      <trkpt lat="44.76693" lon="7.02552">
        <ele>2244.3349609375</ele>
        <time>2011-07-24T09:04:41Z</time>
      </trkpt>
      <trkpt lat="44.76694" lon="7.02548">
        <ele>2247.6997070312</ele>
        <time>2011-07-24T09:04:47Z</time>
      </trkpt>
      <trkpt lat="44.76701" lon="7.02546">
        <ele>2244.8156738281</ele>
        <time>2011-07-24T09:04:53Z</time>
      </trkpt>
      <trkpt lat="44.76708" lon="7.02552">
        <ele>2240.9704589844</ele>
        <time>2011-07-24T09:05:00Z</time>
      </trkpt>
      <trkpt lat="44.76717" lon="7.02559">
        <ele>2237.6059570312</ele>
        <time>2011-07-24T09:05:08Z</time>
      </trkpt>
      <trkpt lat="44.76723" lon="7.02568">
        <ele>2235.2023925781</ele>
        <time>2011-07-24T09:05:18Z</time>
      </trkpt>
      <trkpt lat="44.76729" lon="7.0257">
        <ele>2228.9538574219</ele>
        <time>2011-07-24T09:05:25Z</time>
      </trkpt>
      <trkpt lat="44.76733" lon="7.02571">
        <ele>2224.1474609375</ele>
        <time>2011-07-24T09:05:30Z</time>
      </trkpt>
      <trkpt lat="44.76735" lon="7.02574">
        <ele>2224.1474609375</ele>
        <time>2011-07-24T09:05:32Z</time>
      </trkpt>
      <trkpt lat="44.76741" lon="7.02578">
        <ele>2219.3408203125</ele>
        <time>2011-07-24T09:05:37Z</time>
      </trkpt>
      <trkpt lat="44.76748" lon="7.02585">
        <ele>2214.5341796875</ele>
        <time>2011-07-24T09:05:44Z</time>
      </trkpt>
      <trkpt lat="44.76755" lon="7.02596">
        <ele>2219.8212890625</ele>
        <time>2011-07-24T09:05:52Z</time>
      </trkpt>
      <trkpt lat="44.76759" lon="7.02603">
        <ele>2220.7829589844</ele>
        <time>2011-07-24T09:05:57Z</time>
      </trkpt>
      <trkpt lat="44.76762" lon="7.02604">
        <ele>2213.0922851562</ele>
        <time>2011-07-24T09:06:03Z</time>
      </trkpt>
      <trkpt lat="44.76756" lon="7.02611">
        <ele>2210.6889648438</ele>
        <time>2011-07-24T09:06:07Z</time>
      </trkpt>
      <trkpt lat="44.76758" lon="7.02616">
        <ele>2210.2082519531</ele>
        <time>2011-07-24T09:06:12Z</time>
      </trkpt>
      <trkpt lat="44.76762" lon="7.02622">
        <ele>2207.8051757812</ele>
        <time>2011-07-24T09:06:18Z</time>
      </trkpt>
      <trkpt lat="44.76769" lon="7.02627">
        <ele>2207.8051757812</ele>
        <time>2011-07-24T09:06:23Z</time>
      </trkpt>
      <trkpt lat="44.76772" lon="7.02628">
        <ele>2207.3244628906</ele>
        <time>2011-07-24T09:06:24Z</time>
      </trkpt>
      <trkpt lat="44.76775" lon="7.0263">
        <ele>2206.3630371094</ele>
        <time>2011-07-24T09:06:28Z</time>
      </trkpt>
      <trkpt lat="44.76774" lon="7.02636">
        <ele>2210.2082519531</ele>
        <time>2011-07-24T09:06:36Z</time>
      </trkpt>
      <trkpt lat="44.76781" lon="7.0264">
        <ele>2213.5727539062</ele>
        <time>2011-07-24T09:06:41Z</time>
      </trkpt>
      <trkpt lat="44.76798" lon="7.02643">
        <ele>2210.2082519531</ele>
        <time>2011-07-24T09:06:48Z</time>
      </trkpt>
      <trkpt lat="44.76799" lon="7.02646">
        <ele>2207.8051757812</ele>
        <time>2011-07-24T09:06:52Z</time>
      </trkpt>
      <trkpt lat="44.76795" lon="7.02651">
        <ele>2205.4018554688</ele>
        <time>2011-07-24T09:06:56Z</time>
      </trkpt>
      <trkpt lat="44.76793" lon="7.0266">
        <ele>2205.4018554688</ele>
        <time>2011-07-24T09:07:02Z</time>
      </trkpt>
      <trkpt lat="44.76785" lon="7.02668">
        <ele>2207.8051757812</ele>
        <time>2011-07-24T09:07:07Z</time>
      </trkpt>
      <trkpt lat="44.7679" lon="7.02673">
        <ele>2210.6889648438</ele>
        <time>2011-07-24T09:07:13Z</time>
      </trkpt>
      <trkpt lat="44.76793" lon="7.02675">
        <ele>2206.84375</ele>
        <time>2011-07-24T09:07:19Z</time>
      </trkpt>
      <trkpt lat="44.76794" lon="7.02681">
        <ele>2205.8823242188</ele>
        <time>2011-07-24T09:07:25Z</time>
      </trkpt>
      <trkpt lat="44.76794" lon="7.02685">
        <ele>2202.0368652344</ele>
        <time>2011-07-24T09:07:30Z</time>
      </trkpt>
      <trkpt lat="44.76797" lon="7.02691">
        <ele>2196.7497558594</ele>
        <time>2011-07-24T09:07:37Z</time>
      </trkpt>
      <trkpt lat="44.76791" lon="7.02703">
        <ele>2199.1530761719</ele>
        <time>2011-07-24T09:07:49Z</time>
      </trkpt>
      <trkpt lat="44.76791" lon="7.02709">
        <ele>2198.1916503906</ele>
        <time>2011-07-24T09:07:54Z</time>
      </trkpt>
      <trkpt lat="44.76787" lon="7.02717">
        <ele>2198.6723632812</ele>
        <time>2011-07-24T09:08:00Z</time>
      </trkpt>
      <trkpt lat="44.76786" lon="7.02723">
        <ele>2200.1145019531</ele>
        <time>2011-07-24T09:08:04Z</time>
      </trkpt>
      <trkpt lat="44.76792" lon="7.02726">
        <ele>2199.6337890625</ele>
        <time>2011-07-24T09:08:07Z</time>
      </trkpt>
      <trkpt lat="44.76802" lon="7.0273">
        <ele>2197.23046875</ele>
        <time>2011-07-24T09:08:13Z</time>
      </trkpt>
      <trkpt lat="44.76801" lon="7.02737">
        <ele>2196.7497558594</ele>
        <time>2011-07-24T09:08:19Z</time>
      </trkpt>
      <trkpt lat="44.76804" lon="7.02745">
        <ele>2199.1530761719</ele>
        <time>2011-07-24T09:08:24Z</time>
      </trkpt>
      <trkpt lat="44.76808" lon="7.0275">
        <ele>2199.1530761719</ele>
        <time>2011-07-24T09:08:30Z</time>
      </trkpt>
      <trkpt lat="44.76811" lon="7.02755">
        <ele>2199.6337890625</ele>
        <time>2011-07-24T09:08:34Z</time>
      </trkpt>
      <trkpt lat="44.76809" lon="7.02759">
        <ele>2195.3078613281</ele>
        <time>2011-07-24T09:08:40Z</time>
      </trkpt>
      <trkpt lat="44.76808" lon="7.02764">
        <ele>2196.7497558594</ele>
        <time>2011-07-24T09:08:44Z</time>
      </trkpt>
      <trkpt lat="44.76825" lon="7.02773">
        <ele>2194.8271484375</ele>
        <time>2011-07-24T09:08:54Z</time>
      </trkpt>
      <trkpt lat="44.76823" lon="7.02777">
        <ele>2190.5012207031</ele>
        <time>2011-07-24T09:09:00Z</time>
      </trkpt>
      <trkpt lat="44.76821" lon="7.02782">
        <ele>2189.5400390625</ele>
        <time>2011-07-24T09:09:04Z</time>
      </trkpt>
      <trkpt lat="44.7682" lon="7.02792">
        <ele>2192.4240722656</ele>
        <time>2011-07-24T09:09:11Z</time>
      </trkpt>
      <trkpt lat="44.7682" lon="7.02802">
        <ele>2192.9045410156</ele>
        <time>2011-07-24T09:09:18Z</time>
      </trkpt>
      <trkpt lat="44.7682" lon="7.02806">
        <ele>2191.4626464844</ele>
        <time>2011-07-24T09:09:22Z</time>
      </trkpt>
      <trkpt lat="44.76826" lon="7.02812">
        <ele>2185.6945800781</ele>
        <time>2011-07-24T09:09:29Z</time>
      </trkpt>
      <trkpt lat="44.76829" lon="7.0282">
        <ele>2182.330078125</ele>
        <time>2011-07-24T09:09:36Z</time>
      </trkpt>
      <trkpt lat="44.76832" lon="7.02835">
        <ele>2179.4460449219</ele>
        <time>2011-07-24T09:09:45Z</time>
      </trkpt>
      <trkpt lat="44.76833" lon="7.02846">
        <ele>2179.4460449219</ele>
        <time>2011-07-24T09:09:52Z</time>
      </trkpt>
      <trkpt lat="44.76834" lon="7.02855">
        <ele>2180.8881835938</ele>
        <time>2011-07-24T09:09:58Z</time>
      </trkpt>
      <trkpt lat="44.76838" lon="7.02864">
        <ele>2178.4848632812</ele>
        <time>2011-07-24T09:10:06Z</time>
      </trkpt>
      <trkpt lat="44.76838" lon="7.02873">
        <ele>2178.9653320312</ele>
        <time>2011-07-24T09:10:13Z</time>
      </trkpt>
      <trkpt lat="44.76844" lon="7.02885">
        <ele>2174.1589355469</ele>
        <time>2011-07-24T09:10:22Z</time>
      </trkpt>
      <trkpt lat="44.76851" lon="7.02893">
        <ele>2173.1977539062</ele>
        <time>2011-07-24T09:10:29Z</time>
      </trkpt>
      <trkpt lat="44.76855" lon="7.02909">
        <ele>2177.5234375</ele>
        <time>2011-07-24T09:10:38Z</time>
      </trkpt>
      <trkpt lat="44.76858" lon="7.0292">
        <ele>2174.1589355469</ele>
        <time>2011-07-24T09:10:45Z</time>
      </trkpt>
      <trkpt lat="44.76864" lon="7.02934">
        <ele>2169.8327636719</ele>
        <time>2011-07-24T09:10:55Z</time>
      </trkpt>
      <trkpt lat="44.76866" lon="7.02946">
        <ele>2171.2746582031</ele>
        <time>2011-07-24T09:11:05Z</time>
      </trkpt>
      <trkpt lat="44.76868" lon="7.02955">
        <ele>2172.236328125</ele>
        <time>2011-07-24T09:11:13Z</time>
      </trkpt>
      <trkpt lat="44.76867" lon="7.02963">
        <ele>2177.5234375</ele>
        <time>2011-07-24T09:11:21Z</time>
      </trkpt>
      <trkpt lat="44.76868" lon="7.02964">
        <ele>2176.0815429688</ele>
        <time>2011-07-24T09:11:28Z</time>
      </trkpt>
      <trkpt lat="44.76864" lon="7.02965">
        <ele>2179.4460449219</ele>
        <time>2011-07-24T09:11:40Z</time>
      </trkpt>
      <trkpt lat="44.76864" lon="7.0297">
        <ele>2180.8881835938</ele>
        <time>2011-07-24T09:12:08Z</time>
      </trkpt>
      <trkpt lat="44.76867" lon="7.02972">
        <ele>2184.2526855469</ele>
        <time>2011-07-24T09:12:18Z</time>
      </trkpt>
      <trkpt lat="44.76878" lon="7.02973">
        <ele>2182.330078125</ele>
        <time>2011-07-24T09:12:36Z</time>
      </trkpt>
      <trkpt lat="44.76881" lon="7.02976">
        <ele>2183.7719726562</ele>
        <time>2011-07-24T09:12:42Z</time>
      </trkpt>
      <trkpt lat="44.76884" lon="7.02977">
        <ele>2184.2526855469</ele>
        <time>2011-07-24T09:12:47Z</time>
      </trkpt>
      <trkpt lat="44.76888" lon="7.02977">
        <ele>2176.5622558594</ele>
        <time>2011-07-24T09:12:55Z</time>
      </trkpt>
      <trkpt lat="44.76889" lon="7.02978">
        <ele>2171.2746582031</ele>
        <time>2011-07-24T09:12:59Z</time>
      </trkpt>
      <trkpt lat="44.76892" lon="7.02984">
        <ele>2168.8715820312</ele>
        <time>2011-07-24T09:13:07Z</time>
      </trkpt>
      <trkpt lat="44.76912" lon="7.02987">
        <ele>2184.7333984375</ele>
        <time>2011-07-24T09:13:20Z</time>
      </trkpt>
      <trkpt lat="44.76891" lon="7.02988">
        <ele>2171.2746582031</ele>
        <time>2011-07-24T09:13:46Z</time>
      </trkpt>
      <trkpt lat="44.76899" lon="7.02991">
        <ele>2166.4682617188</ele>
        <time>2011-07-24T09:13:54Z</time>
      </trkpt>
      <trkpt lat="44.76905" lon="7.02997">
        <ele>2165.5070800781</ele>
        <time>2011-07-24T09:13:59Z</time>
      </trkpt>
      <trkpt lat="44.769" lon="7.03007">
        <ele>2168.8715820312</ele>
        <time>2011-07-24T09:14:03Z</time>
      </trkpt>
      <trkpt lat="44.76901" lon="7.03012">
        <ele>2169.8327636719</ele>
        <time>2011-07-24T09:14:07Z</time>
      </trkpt>
      <trkpt lat="44.76902" lon="7.03016">
        <ele>2170.3134765625</ele>
        <time>2011-07-24T09:14:18Z</time>
      </trkpt>
      <trkpt lat="44.76904" lon="7.03024">
        <ele>2172.7170410156</ele>
        <time>2011-07-24T09:14:32Z</time>
      </trkpt>
      <trkpt lat="44.7691" lon="7.03024">
        <ele>2172.7170410156</ele>
        <time>2011-07-24T09:14:35Z</time>
      </trkpt>
      <trkpt lat="44.76918" lon="7.03027">
        <ele>2168.3908691406</ele>
        <time>2011-07-24T09:14:43Z</time>
      </trkpt>
      <trkpt lat="44.76925" lon="7.03048">
        <ele>2160.7004394531</ele>
        <time>2011-07-24T09:15:09Z</time>
      </trkpt>
      <trkpt lat="44.76925" lon="7.03052">
        <ele>2154.4516601562</ele>
        <time>2011-07-24T09:15:15Z</time>
      </trkpt>
      <trkpt lat="44.76923" lon="7.03054">
        <ele>2163.5842285156</ele>
        <time>2011-07-24T09:17:30Z</time>
      </trkpt>
      <trkpt lat="44.76925" lon="7.0305">
        <ele>2160.7004394531</ele>
        <time>2011-07-24T09:17:35Z</time>
      </trkpt>
      <trkpt lat="44.76926" lon="7.03044">
        <ele>2159.2585449219</ele>
        <time>2011-07-24T09:17:40Z</time>
      </trkpt>
      <trkpt lat="44.76924" lon="7.03037">
        <ele>2156.3745117188</ele>
        <time>2011-07-24T09:17:45Z</time>
      </trkpt>
      <trkpt lat="44.76922" lon="7.03027">
        <ele>2151.5678710938</ele>
        <time>2011-07-24T09:17:51Z</time>
      </trkpt>
      <trkpt lat="44.76923" lon="7.03021">
        <ele>2149.1645507812</ele>
        <time>2011-07-24T09:17:55Z</time>
      </trkpt>
      <trkpt lat="44.76928" lon="7.03014">
        <ele>2150.1259765625</ele>
        <time>2011-07-24T09:18:02Z</time>
      </trkpt>
      <trkpt lat="44.76929" lon="7.0301">
        <ele>2150.1259765625</ele>
        <time>2011-07-24T09:18:07Z</time>
      </trkpt>
      <trkpt lat="44.76958" lon="7.03027">
        <ele>2135.7060546875</ele>
        <time>2011-07-24T09:18:45Z</time>
      </trkpt>
      <trkpt lat="44.7696" lon="7.03034">
        <ele>2134.7448730469</ele>
        <time>2011-07-24T09:18:49Z</time>
      </trkpt>
      <trkpt lat="44.76969" lon="7.03044">
        <ele>2131.8608398438</ele>
        <time>2011-07-24T09:18:55Z</time>
      </trkpt>
      <trkpt lat="44.76969" lon="7.03058">
        <ele>2135.2253417969</ele>
        <time>2011-07-24T09:19:01Z</time>
      </trkpt>
      <trkpt lat="44.7697" lon="7.03065">
        <ele>2134.7448730469</ele>
        <time>2011-07-24T09:19:06Z</time>
      </trkpt>
      <trkpt lat="44.76972" lon="7.03071">
        <ele>2133.302734375</ele>
        <time>2011-07-24T09:19:12Z</time>
      </trkpt>
      <trkpt lat="44.76971" lon="7.03076">
        <ele>2133.302734375</ele>
        <time>2011-07-24T09:19:16Z</time>
      </trkpt>
      <trkpt lat="44.76969" lon="7.03085">
        <ele>2134.2641601562</ele>
        <time>2011-07-24T09:19:24Z</time>
      </trkpt>
      <trkpt lat="44.76966" lon="7.03099">
        <ele>2134.7448730469</ele>
        <time>2011-07-24T09:19:31Z</time>
      </trkpt>
      <trkpt lat="44.76966" lon="7.03099">
        <ele>2133.7834472656</ele>
        <time>2011-07-24T09:19:35Z</time>
      </trkpt>
      <trkpt lat="44.76966" lon="7.03096">
        <ele>2134.7448730469</ele>
        <time>2011-07-24T09:19:40Z</time>
      </trkpt>
      <trkpt lat="44.76966" lon="7.03092">
        <ele>2133.7834472656</ele>
        <time>2011-07-24T09:19:47Z</time>
      </trkpt>
      <trkpt lat="44.76966" lon="7.03091">
        <ele>2132.8220214844</ele>
        <time>2011-07-24T09:19:48Z</time>
      </trkpt>
      <trkpt lat="44.7697" lon="7.03082">
        <ele>2129.4575195312</ele>
        <time>2011-07-24T09:19:56Z</time>
      </trkpt>
      <trkpt lat="44.76969" lon="7.03073">
        <ele>2128.015625</ele>
        <time>2011-07-24T09:20:05Z</time>
      </trkpt>
      <trkpt lat="44.76977" lon="7.03056">
        <ele>2124.1704101562</ele>
        <time>2011-07-24T09:20:25Z</time>
      </trkpt>
      <trkpt lat="44.7698" lon="7.03049">
        <ele>2122.7282714844</ele>
        <time>2011-07-24T09:20:30Z</time>
      </trkpt>
      <trkpt lat="44.76982" lon="7.03044">
        <ele>2121.7668457031</ele>
        <time>2011-07-24T09:20:35Z</time>
      </trkpt>
      <trkpt lat="44.76985" lon="7.0304">
        <ele>2121.2861328125</ele>
        <time>2011-07-24T09:20:38Z</time>
      </trkpt>
      <trkpt lat="44.76989" lon="7.03035">
        <ele>2117.9216308594</ele>
        <time>2011-07-24T09:20:43Z</time>
      </trkpt>
      <trkpt lat="44.76989" lon="7.03037">
        <ele>2111.1926269531</ele>
        <time>2011-07-24T09:20:48Z</time>
      </trkpt>
      <trkpt lat="44.76994" lon="7.03045">
        <ele>2107.8278808594</ele>
        <time>2011-07-24T09:21:09Z</time>
      </trkpt>
      <trkpt lat="44.77005" lon="7.03049">
        <ele>2103.0212402344</ele>
        <time>2011-07-24T09:21:24Z</time>
      </trkpt>
      <trkpt lat="44.77009" lon="7.0306">
        <ele>2104.9438476562</ele>
        <time>2011-07-24T09:21:32Z</time>
      </trkpt>
      <trkpt lat="44.77013" lon="7.0307">
        <ele>2104.4631347656</ele>
        <time>2011-07-24T09:21:38Z</time>
      </trkpt>
      <trkpt lat="44.77015" lon="7.03078">
        <ele>2107.8278808594</ele>
        <time>2011-07-24T09:21:42Z</time>
      </trkpt>
      <trkpt lat="44.77015" lon="7.03084">
        <ele>2107.8278808594</ele>
        <time>2011-07-24T09:21:45Z</time>
      </trkpt>
      <trkpt lat="44.77015" lon="7.03094">
        <ele>2110.2312011719</ele>
        <time>2011-07-24T09:21:49Z</time>
      </trkpt>
      <trkpt lat="44.77013" lon="7.03103">
        <ele>2108.7893066406</ele>
        <time>2011-07-24T09:21:55Z</time>
      </trkpt>
      <trkpt lat="44.77008" lon="7.03116">
        <ele>2106.8664550781</ele>
        <time>2011-07-24T09:22:03Z</time>
      </trkpt>
      <trkpt lat="44.77005" lon="7.03119">
        <ele>2105.9050292969</ele>
        <time>2011-07-24T09:22:08Z</time>
      </trkpt>
      <trkpt lat="44.77004" lon="7.03125">
        <ele>2103.501953125</ele>
        <time>2011-07-24T09:22:13Z</time>
      </trkpt>
      <trkpt lat="44.77006" lon="7.0313">
        <ele>2096.2922363281</ele>
        <time>2011-07-24T09:22:21Z</time>
      </trkpt>
      <trkpt lat="44.77005" lon="7.03136">
        <ele>2094.3693847656</ele>
        <time>2011-07-24T09:22:25Z</time>
      </trkpt>
      <trkpt lat="44.77004" lon="7.03133">
        <ele>2091.0046386719</ele>
        <time>2011-07-24T09:22:34Z</time>
      </trkpt>
      <trkpt lat="44.77005" lon="7.03129">
        <ele>2090.0434570312</ele>
        <time>2011-07-24T09:22:38Z</time>
      </trkpt>
      <trkpt lat="44.77012" lon="7.03117">
        <ele>2083.794921875</ele>
        <time>2011-07-24T09:23:08Z</time>
      </trkpt>
      <trkpt lat="44.77018" lon="7.03119">
        <ele>2079.4689941406</ele>
        <time>2011-07-24T09:23:13Z</time>
      </trkpt>
      <trkpt lat="44.77021" lon="7.0312">
        <ele>2077.5463867188</ele>
        <time>2011-07-24T09:23:15Z</time>
      </trkpt>
      <trkpt lat="44.77025" lon="7.03125">
        <ele>2075.1428222656</ele>
        <time>2011-07-24T09:23:21Z</time>
      </trkpt>
      <trkpt lat="44.77029" lon="7.03126">
        <ele>2070.8171386719</ele>
        <time>2011-07-24T09:23:28Z</time>
      </trkpt>
      <trkpt lat="44.77024" lon="7.03126">
        <ele>2071.2976074219</ele>
        <time>2011-07-24T09:23:35Z</time>
      </trkpt>
      <trkpt lat="44.77026" lon="7.03122">
        <ele>2065.5300292969</ele>
        <time>2011-07-24T09:23:45Z</time>
      </trkpt>
      <trkpt lat="44.77028" lon="7.03118">
        <ele>2066.4912109375</ele>
        <time>2011-07-24T09:23:51Z</time>
      </trkpt>
      <trkpt lat="44.77032" lon="7.03115">
        <ele>2067.4523925781</ele>
        <time>2011-07-24T09:23:55Z</time>
      </trkpt>
      <trkpt lat="44.7704" lon="7.03108">
        <ele>2068.89453125</ele>
        <time>2011-07-24T09:24:01Z</time>
      </trkpt>
      <trkpt lat="44.77044" lon="7.031">
        <ele>2065.5300292969</ele>
        <time>2011-07-24T09:24:07Z</time>
      </trkpt>
      <trkpt lat="44.7705" lon="7.03098">
        <ele>2061.2041015625</ele>
        <time>2011-07-24T09:24:13Z</time>
      </trkpt>
      <trkpt lat="44.77055" lon="7.03103">
        <ele>2061.2041015625</ele>
        <time>2011-07-24T09:24:18Z</time>
      </trkpt>
      <trkpt lat="44.77058" lon="7.03115">
        <ele>2067.9331054688</ele>
        <time>2011-07-24T09:24:24Z</time>
      </trkpt>
      <trkpt lat="44.77061" lon="7.03137">
        <ele>2071.7783203125</ele>
        <time>2011-07-24T09:24:47Z</time>
      </trkpt>
      <trkpt lat="44.7706" lon="7.03148">
        <ele>2071.2976074219</ele>
        <time>2011-07-24T09:24:52Z</time>
      </trkpt>
      <trkpt lat="44.77055" lon="7.03149">
        <ele>2056.8779296875</ele>
        <time>2011-07-24T09:25:12Z</time>
      </trkpt>
      <trkpt lat="44.77058" lon="7.03141">
        <ele>2047.7456054688</ele>
        <time>2011-07-24T09:25:18Z</time>
      </trkpt>
      <trkpt lat="44.77063" lon="7.03138">
        <ele>2040.5354003906</ele>
        <time>2011-07-24T09:25:28Z</time>
      </trkpt>
      <trkpt lat="44.77061" lon="7.03129">
        <ele>2027.5576171875</ele>
        <time>2011-07-24T09:25:33Z</time>
      </trkpt>
      <trkpt lat="44.77065" lon="7.03124">
        <ele>2023.2319335938</ele>
        <time>2011-07-24T09:25:36Z</time>
      </trkpt>
      <trkpt lat="44.77069" lon="7.03122">
        <ele>2018.9060058594</ele>
        <time>2011-07-24T09:25:40Z</time>
      </trkpt>
      <trkpt lat="44.77073" lon="7.03117">
        <ele>2018.4252929688</ele>
        <time>2011-07-24T09:25:49Z</time>
      </trkpt>
      <trkpt lat="44.77076" lon="7.03115">
        <ele>2016.5026855469</ele>
        <time>2011-07-24T09:25:53Z</time>
      </trkpt>
      <trkpt lat="44.7708" lon="7.03112">
        <ele>2020.8286132812</ele>
        <time>2011-07-24T09:25:58Z</time>
      </trkpt>
      <trkpt lat="44.77085" lon="7.03109">
        <ele>2014.580078125</ele>
        <time>2011-07-24T09:26:04Z</time>
      </trkpt>
      <trkpt lat="44.77096" lon="7.03116">
        <ele>2029.48046875</ele>
        <time>2011-07-24T09:26:10Z</time>
      </trkpt>
      <trkpt lat="44.77095" lon="7.03123">
        <ele>2032.3645019531</ele>
        <time>2011-07-24T09:26:14Z</time>
      </trkpt>
      <trkpt lat="44.77096" lon="7.03131">
        <ele>2044.380859375</ele>
        <time>2011-07-24T09:26:19Z</time>
      </trkpt>
      <trkpt lat="44.77092" lon="7.03137">
        <ele>2046.3037109375</ele>
        <time>2011-07-24T09:26:24Z</time>
      </trkpt>
      <trkpt lat="44.77096" lon="7.03142">
        <ele>2050.1489257812</ele>
        <time>2011-07-24T09:26:28Z</time>
      </trkpt>
      <trkpt lat="44.77097" lon="7.03151">
        <ele>2055.4360351562</ele>
        <time>2011-07-24T09:26:33Z</time>
      </trkpt>
      <trkpt lat="44.77089" lon="7.0316">
        <ele>2040.5354003906</ele>
        <time>2011-07-24T09:26:39Z</time>
      </trkpt>
      <trkpt lat="44.77088" lon="7.03164">
        <ele>2041.4968261719</ele>
        <time>2011-07-24T09:26:43Z</time>
      </trkpt>
      <trkpt lat="44.77082" lon="7.0317">
        <ele>2029.9611816406</ele>
        <time>2011-07-24T09:26:49Z</time>
      </trkpt>
      <trkpt lat="44.77077" lon="7.03178">
        <ele>2023.2319335938</ele>
        <time>2011-07-24T09:26:57Z</time>
      </trkpt>
      <trkpt lat="44.77077" lon="7.03179">
        <ele>2026.5964355469</ele>
        <time>2011-07-24T09:27:00Z</time>
      </trkpt>
      <trkpt lat="44.77074" lon="7.03186">
        <ele>2035.7290039062</ele>
        <time>2011-07-24T09:27:06Z</time>
      </trkpt>
      <trkpt lat="44.7707" lon="7.03187">
        <ele>2030.9226074219</ele>
        <time>2011-07-24T09:27:10Z</time>
      </trkpt>
      <trkpt lat="44.77066" lon="7.03192">
        <ele>2027.0771484375</ele>
        <time>2011-07-24T09:27:13Z</time>
      </trkpt>
      <trkpt lat="44.77062" lon="7.032">
        <ele>2027.0771484375</ele>
        <time>2011-07-24T09:27:19Z</time>
      </trkpt>
      <trkpt lat="44.77058" lon="7.03207">
        <ele>2027.0771484375</ele>
        <time>2011-07-24T09:27:26Z</time>
      </trkpt>
      <trkpt lat="44.77055" lon="7.03206">
        <ele>2016.9833984375</ele>
        <time>2011-07-24T09:28:11Z</time>
      </trkpt>
      <trkpt lat="44.77058" lon="7.03209">
        <ele>2021.7897949219</ele>
        <time>2011-07-24T09:28:17Z</time>
      </trkpt>
      <trkpt lat="44.77062" lon="7.0321">
        <ele>2020.3479003906</ele>
        <time>2011-07-24T09:28:23Z</time>
      </trkpt>
      <trkpt lat="44.77061" lon="7.03213">
        <ele>2022.2705078125</ele>
        <time>2011-07-24T09:28:29Z</time>
      </trkpt>
      <trkpt lat="44.77068" lon="7.03214">
        <ele>2020.3479003906</ele>
        <time>2011-07-24T09:28:35Z</time>
      </trkpt>
      <trkpt lat="44.77056" lon="7.03219">
        <ele>1991.9890136719</ele>
        <time>2011-07-24T09:28:54Z</time>
      </trkpt>
      <trkpt lat="44.77057" lon="7.03226">
        <ele>2012.6574707031</ele>
        <time>2011-07-24T09:29:42Z</time>
      </trkpt>
      <trkpt lat="44.77063" lon="7.03223">
        <ele>2012.6574707031</ele>
        <time>2011-07-24T09:29:51Z</time>
      </trkpt>
      <trkpt lat="44.77066" lon="7.0322">
        <ele>2008.8120117188</ele>
        <time>2011-07-24T09:29:56Z</time>
      </trkpt>
      <trkpt lat="44.77079" lon="7.0321">
        <ele>2005.4475097656</ele>
        <time>2011-07-24T09:30:14Z</time>
      </trkpt>
      <trkpt lat="44.77084" lon="7.03208">
        <ele>2007.8508300781</ele>
        <time>2011-07-24T09:30:18Z</time>
      </trkpt>
      <trkpt lat="44.77086" lon="7.03207">
        <ele>2004.966796875</ele>
        <time>2011-07-24T09:30:23Z</time>
      </trkpt>
      <trkpt lat="44.77088" lon="7.03215">
        <ele>2017.9445800781</ele>
        <time>2011-07-24T09:30:33Z</time>
      </trkpt>
      <trkpt lat="44.77093" lon="7.03215">
        <ele>2014.580078125</ele>
        <time>2011-07-24T09:30:43Z</time>
      </trkpt>
      <trkpt lat="44.77102" lon="7.03214">
        <ele>2005.4475097656</ele>
        <time>2011-07-24T09:30:56Z</time>
      </trkpt>
      <trkpt lat="44.77105" lon="7.03216">
        <ele>2002.0827636719</ele>
        <time>2011-07-24T09:31:03Z</time>
      </trkpt>
      <trkpt lat="44.77109" lon="7.03222">
        <ele>2001.6022949219</ele>
        <time>2011-07-24T09:31:14Z</time>
      </trkpt>
      <trkpt lat="44.7711" lon="7.03217">
        <ele>1992.9501953125</ele>
        <time>2011-07-24T09:31:23Z</time>
      </trkpt>
      <trkpt lat="44.77111" lon="7.0321">
        <ele>1987.6630859375</ele>
        <time>2011-07-24T09:31:28Z</time>
      </trkpt>
      <trkpt lat="44.77115" lon="7.03207">
        <ele>1984.2985839844</ele>
        <time>2011-07-24T09:31:32Z</time>
      </trkpt>
      <trkpt lat="44.77118" lon="7.03204">
        <ele>1981.8952636719</ele>
        <time>2011-07-24T09:31:37Z</time>
      </trkpt>
      <trkpt lat="44.77128" lon="7.03203">
        <ele>1986.2211914062</ele>
        <time>2011-07-24T09:31:52Z</time>
      </trkpt>
      <trkpt lat="44.77134" lon="7.03194">
        <ele>1975.1657714844</ele>
        <time>2011-07-24T09:32:04Z</time>
      </trkpt>
      <trkpt lat="44.77133" lon="7.03186">
        <ele>1969.3981933594</ele>
        <time>2011-07-24T09:32:09Z</time>
      </trkpt>
      <trkpt lat="44.77136" lon="7.03178">
        <ele>1970.359375</ele>
        <time>2011-07-24T09:32:21Z</time>
      </trkpt>
      <trkpt lat="44.77138" lon="7.03174">
        <ele>1972.2819824219</ele>
        <time>2011-07-24T09:32:26Z</time>
      </trkpt>
      <trkpt lat="44.77139" lon="7.0317">
        <ele>1973.7238769531</ele>
        <time>2011-07-24T09:32:31Z</time>
      </trkpt>
      <trkpt lat="44.77147" lon="7.03168">
        <ele>1967.9560546875</ele>
        <time>2011-07-24T09:32:40Z</time>
      </trkpt>
      <trkpt lat="44.77154" lon="7.03171">
        <ele>1962.6687011719</ele>
        <time>2011-07-24T09:32:47Z</time>
      </trkpt>
      <trkpt lat="44.77155" lon="7.03176">
        <ele>1959.3041992188</ele>
        <time>2011-07-24T09:32:52Z</time>
      </trkpt>
      <trkpt lat="44.77156" lon="7.0318">
        <ele>1958.8234863281</ele>
        <time>2011-07-24T09:32:57Z</time>
      </trkpt>
      <trkpt lat="44.7716" lon="7.03177">
        <ele>1951.1330566406</ele>
        <time>2011-07-24T09:33:02Z</time>
      </trkpt>
      <trkpt lat="44.7717" lon="7.03181">
        <ele>1950.65234375</ele>
        <time>2011-07-24T09:33:07Z</time>
      </trkpt>
      <trkpt lat="44.77177" lon="7.03184">
        <ele>1952.0942382812</ele>
        <time>2011-07-24T09:33:13Z</time>
      </trkpt>
      <trkpt lat="44.7718" lon="7.03186">
        <ele>1955.458984375</ele>
        <time>2011-07-24T09:33:17Z</time>
      </trkpt>
      <trkpt lat="44.77182" lon="7.03183">
        <ele>1956.4201660156</ele>
        <time>2011-07-24T09:33:21Z</time>
      </trkpt>
      <trkpt lat="44.77192" lon="7.03187">
        <ele>1956.9008789062</ele>
        <time>2011-07-24T09:33:26Z</time>
      </trkpt>
      <trkpt lat="44.77197" lon="7.0319">
        <ele>1954.9782714844</ele>
        <time>2011-07-24T09:33:30Z</time>
      </trkpt>
      <trkpt lat="44.772" lon="7.03197">
        <ele>1956.4201660156</ele>
        <time>2011-07-24T09:33:36Z</time>
      </trkpt>
      <trkpt lat="44.77206" lon="7.03205">
        <ele>1956.9008789062</ele>
        <time>2011-07-24T09:33:42Z</time>
      </trkpt>
      <trkpt lat="44.77208" lon="7.03208">
        <ele>1952.5749511719</ele>
        <time>2011-07-24T09:33:47Z</time>
      </trkpt>
      <trkpt lat="44.77221" lon="7.0321">
        <ele>1935.751953125</ele>
        <time>2011-07-24T09:33:56Z</time>
      </trkpt>
      <trkpt lat="44.77232" lon="7.03211">
        <ele>1940.5583496094</ele>
        <time>2011-07-24T09:34:04Z</time>
      </trkpt>
      <trkpt lat="44.77232" lon="7.03207">
        <ele>1939.1164550781</ele>
        <time>2011-07-24T09:34:08Z</time>
      </trkpt>
      <trkpt lat="44.77232" lon="7.03214">
        <ele>1948.7297363281</ele>
        <time>2011-07-24T09:34:14Z</time>
      </trkpt>
      <trkpt lat="44.77238" lon="7.03223">
        <ele>1962.6687011719</ele>
        <time>2011-07-24T09:34:19Z</time>
      </trkpt>
      <trkpt lat="44.77235" lon="7.03228">
        <ele>1958.8234863281</ele>
        <time>2011-07-24T09:34:24Z</time>
      </trkpt>
      <trkpt lat="44.77231" lon="7.03236">
        <ele>1956.9008789062</ele>
        <time>2011-07-24T09:34:35Z</time>
      </trkpt>
      <trkpt lat="44.77233" lon="7.03233">
        <ele>1947.7683105469</ele>
        <time>2011-07-24T09:34:39Z</time>
      </trkpt>
      <trkpt lat="44.7724" lon="7.03235">
        <ele>1946.8068847656</ele>
        <time>2011-07-24T09:34:43Z</time>
      </trkpt>
      <trkpt lat="44.77242" lon="7.03231">
        <ele>1940.5583496094</ele>
        <time>2011-07-24T09:34:47Z</time>
      </trkpt>
      <trkpt lat="44.77247" lon="7.03231">
        <ele>1943.4423828125</ele>
        <time>2011-07-24T09:34:50Z</time>
      </trkpt>
      <trkpt lat="44.77251" lon="7.03227">
        <ele>1937.6745605469</ele>
        <time>2011-07-24T09:34:55Z</time>
      </trkpt>
      <trkpt lat="44.77258" lon="7.03219">
        <ele>1923.2548828125</ele>
        <time>2011-07-24T09:35:02Z</time>
      </trkpt>
      <trkpt lat="44.77266" lon="7.03219">
        <ele>1917.0063476562</ele>
        <time>2011-07-24T09:35:07Z</time>
      </trkpt>
      <trkpt lat="44.77265" lon="7.03236">
        <ele>1935.751953125</ele>
        <time>2011-07-24T09:35:24Z</time>
      </trkpt>
      <trkpt lat="44.77265" lon="7.0324">
        <ele>1935.2712402344</ele>
        <time>2011-07-24T09:35:30Z</time>
      </trkpt>
      <trkpt lat="44.77261" lon="7.03254">
        <ele>1927.5805664062</ele>
        <time>2011-07-24T09:35:44Z</time>
      </trkpt>
      <trkpt lat="44.77258" lon="7.0326">
        <ele>1927.1000976562</ele>
        <time>2011-07-24T09:35:52Z</time>
      </trkpt>
      <trkpt lat="44.77249" lon="7.03268">
        <ele>1916.044921875</ele>
        <time>2011-07-24T09:36:03Z</time>
      </trkpt>
      <trkpt lat="44.77248" lon="7.03273">
        <ele>1917.0063476562</ele>
        <time>2011-07-24T09:36:09Z</time>
      </trkpt>
      <trkpt lat="44.77246" lon="7.0328">
        <ele>1920.3708496094</ele>
        <time>2011-07-24T09:36:14Z</time>
      </trkpt>
      <trkpt lat="44.77242" lon="7.03285">
        <ele>1922.2934570312</ele>
        <time>2011-07-24T09:36:18Z</time>
      </trkpt>
      <trkpt lat="44.77238" lon="7.0329">
        <ele>1929.5031738281</ele>
        <time>2011-07-24T09:36:23Z</time>
      </trkpt>
      <trkpt lat="44.77237" lon="7.03294">
        <ele>1935.2712402344</ele>
        <time>2011-07-24T09:36:29Z</time>
      </trkpt>
      <trkpt lat="44.7724" lon="7.03298">
        <ele>1929.5031738281</ele>
        <time>2011-07-24T09:36:37Z</time>
      </trkpt>
      <trkpt lat="44.7724" lon="7.03303">
        <ele>1919.4096679688</ele>
        <time>2011-07-24T09:36:44Z</time>
      </trkpt>
      <trkpt lat="44.77241" lon="7.03313">
        <ele>1916.5256347656</ele>
        <time>2011-07-24T09:36:50Z</time>
      </trkpt>
      <trkpt lat="44.77242" lon="7.0332">
        <ele>1915.5642089844</ele>
        <time>2011-07-24T09:37:00Z</time>
      </trkpt>
      <trkpt lat="44.7724" lon="7.03322">
        <ele>1908.8349609375</ele>
        <time>2011-07-24T09:37:06Z</time>
      </trkpt>
      <trkpt lat="44.77234" lon="7.03314">
        <ele>1896.818359375</ele>
        <time>2011-07-24T09:37:14Z</time>
      </trkpt>
      <trkpt lat="44.77231" lon="7.03314">
        <ele>1896.818359375</ele>
        <time>2011-07-24T09:37:18Z</time>
      </trkpt>
      <trkpt lat="44.77225" lon="7.0332">
        <ele>1897.2990722656</ele>
        <time>2011-07-24T09:37:24Z</time>
      </trkpt>
      <trkpt lat="44.7723" lon="7.03327">
        <ele>1911.23828125</ele>
        <time>2011-07-24T09:37:31Z</time>
      </trkpt>
      <trkpt lat="44.7723" lon="7.03327">
        <ele>1902.5864257812</ele>
        <time>2011-07-24T09:37:36Z</time>
      </trkpt>
      <trkpt lat="44.77215" lon="7.03324">
        <ele>1905.9509277344</ele>
        <time>2011-07-24T09:38:44Z</time>
      </trkpt>
      <trkpt lat="44.77213" lon="7.03331">
        <ele>1917.4868164062</ele>
        <time>2011-07-24T09:40:59Z</time>
      </trkpt>
      <trkpt lat="44.77222" lon="7.03337">
        <ele>1917.0063476562</ele>
        <time>2011-07-24T09:41:04Z</time>
      </trkpt>
      <trkpt lat="44.77229" lon="7.03342">
        <ele>1913.6413574219</ele>
        <time>2011-07-24T09:41:13Z</time>
      </trkpt>
      <trkpt lat="44.77232" lon="7.0334">
        <ele>1903.0671386719</ele>
        <time>2011-07-24T09:41:18Z</time>
      </trkpt>
      <trkpt lat="44.77235" lon="7.03342">
        <ele>1894.4150390625</ele>
        <time>2011-07-24T09:41:24Z</time>
      </trkpt>
      <trkpt lat="44.77238" lon="7.03345">
        <ele>1890.0893554688</ele>
        <time>2011-07-24T09:41:47Z</time>
      </trkpt>
      <trkpt lat="44.77246" lon="7.03354">
        <ele>1896.337890625</ele>
        <time>2011-07-24T09:41:54Z</time>
      </trkpt>
      <trkpt lat="44.77249" lon="7.03358">
        <ele>1896.337890625</ele>
        <time>2011-07-24T09:41:59Z</time>
      </trkpt>
      <trkpt lat="44.77254" lon="7.03362">
        <ele>1893.9345703125</ele>
        <time>2011-07-24T09:42:06Z</time>
      </trkpt>
      <trkpt lat="44.77256" lon="7.03364">
        <ele>1896.337890625</ele>
        <time>2011-07-24T09:42:12Z</time>
      </trkpt>
      <trkpt lat="44.77262" lon="7.03369">
        <ele>1901.14453125</ele>
        <time>2011-07-24T09:42:17Z</time>
      </trkpt>
      <trkpt lat="44.77262" lon="7.03381">
        <ele>1902.1057128906</ele>
        <time>2011-07-24T09:42:23Z</time>
      </trkpt>
      <trkpt lat="44.77258" lon="7.03391">
        <ele>1908.3542480469</ele>
        <time>2011-07-24T09:42:29Z</time>
      </trkpt>
      <trkpt lat="44.77256" lon="7.0339">
        <ele>1906.431640625</ele>
        <time>2011-07-24T09:42:31Z</time>
      </trkpt>
      <trkpt lat="44.77246" lon="7.03381">
        <ele>1893.4538574219</ele>
        <time>2011-07-24T09:42:37Z</time>
      </trkpt>
      <trkpt lat="44.77246" lon="7.03382">
        <ele>1888.1667480469</ele>
        <time>2011-07-24T09:42:43Z</time>
      </trkpt>
      <trkpt lat="44.77249" lon="7.0338">
        <ele>1890.0893554688</ele>
        <time>2011-07-24T09:42:45Z</time>
      </trkpt>
      <trkpt lat="44.77254" lon="7.03383">
        <ele>1891.0505371094</ele>
        <time>2011-07-24T09:42:51Z</time>
      </trkpt>
      <trkpt lat="44.77255" lon="7.03386">
        <ele>1889.1279296875</ele>
        <time>2011-07-24T09:42:54Z</time>
      </trkpt>
      <trkpt lat="44.77264" lon="7.03396">
        <ele>1888.1667480469</ele>
        <time>2011-07-24T09:43:03Z</time>
      </trkpt>
      <trkpt lat="44.77266" lon="7.03398">
        <ele>1887.6860351562</ele>
        <time>2011-07-24T09:43:05Z</time>
      </trkpt>
      <trkpt lat="44.77261" lon="7.03412">
        <ele>1885.2827148438</ele>
        <time>2011-07-24T09:43:11Z</time>
      </trkpt>
      <trkpt lat="44.77256" lon="7.03422">
        <ele>1878.5534667969</ele>
        <time>2011-07-24T09:43:19Z</time>
      </trkpt>
      <trkpt lat="44.77249" lon="7.03431">
        <ele>1874.2275390625</ele>
        <time>2011-07-24T09:43:27Z</time>
      </trkpt>
      <trkpt lat="44.77246" lon="7.03434">
        <ele>1875.1887207031</ele>
        <time>2011-07-24T09:43:31Z</time>
      </trkpt>
      <trkpt lat="44.77242" lon="7.0344">
        <ele>1875.1887207031</ele>
        <time>2011-07-24T09:43:35Z</time>
      </trkpt>
      <trkpt lat="44.77237" lon="7.03448">
        <ele>1883.3598632812</ele>
        <time>2011-07-24T09:43:42Z</time>
      </trkpt>
      <trkpt lat="44.77229" lon="7.03452">
        <ele>1875.6694335938</ele>
        <time>2011-07-24T09:43:49Z</time>
      </trkpt>
      <trkpt lat="44.77229" lon="7.03454">
        <ele>1871.82421875</ele>
        <time>2011-07-24T09:43:54Z</time>
      </trkpt>
      <trkpt lat="44.77229" lon="7.03453">
        <ele>1867.017578125</ele>
        <time>2011-07-24T09:43:58Z</time>
      </trkpt>
      <trkpt lat="44.77232" lon="7.03449">
        <ele>1865.0949707031</ele>
        <time>2011-07-24T09:44:07Z</time>
      </trkpt>
      <trkpt lat="44.77243" lon="7.03451">
        <ele>1869.9016113281</ele>
        <time>2011-07-24T09:44:13Z</time>
      </trkpt>
      <trkpt lat="44.77245" lon="7.03452">
        <ele>1868.4597167969</ele>
        <time>2011-07-24T09:44:14Z</time>
      </trkpt>
      <trkpt lat="44.7725" lon="7.0346">
        <ele>1871.82421875</ele>
        <time>2011-07-24T09:44:18Z</time>
      </trkpt>
      <trkpt lat="44.77242" lon="7.03465">
        <ele>1858.3657226562</ele>
        <time>2011-07-24T09:44:25Z</time>
      </trkpt>
      <trkpt lat="44.77235" lon="7.03473">
        <ele>1860.2883300781</ele>
        <time>2011-07-24T09:44:31Z</time>
      </trkpt>
      <trkpt lat="44.77237" lon="7.03478">
        <ele>1871.3435058594</ele>
        <time>2011-07-24T09:44:36Z</time>
      </trkpt>
      <trkpt lat="44.77238" lon="7.03476">
        <ele>1876.1501464844</ele>
        <time>2011-07-24T09:44:40Z</time>
      </trkpt>
      <trkpt lat="44.77248" lon="7.03479">
        <ele>1868.9404296875</ele>
        <time>2011-07-24T09:44:48Z</time>
      </trkpt>
      <trkpt lat="44.77251" lon="7.03479">
        <ele>1867.017578125</ele>
        <time>2011-07-24T09:44:52Z</time>
      </trkpt>
      <trkpt lat="44.7725" lon="7.03477">
        <ele>1864.6142578125</ele>
        <time>2011-07-24T09:44:57Z</time>
      </trkpt>
      <trkpt lat="44.77262" lon="7.03482">
        <ele>1861.73046875</ele>
        <time>2011-07-24T09:45:03Z</time>
      </trkpt>
      <trkpt lat="44.77263" lon="7.03482">
        <ele>1860.7690429688</ele>
        <time>2011-07-24T09:45:04Z</time>
      </trkpt>
      <trkpt lat="44.7727" lon="7.03494">
        <ele>1856.4431152344</ele>
        <time>2011-07-24T09:45:10Z</time>
      </trkpt>
      <trkpt lat="44.77266" lon="7.03508">
        <ele>1860.7690429688</ele>
        <time>2011-07-24T09:45:17Z</time>
      </trkpt>
      <trkpt lat="44.77264" lon="7.0351">
        <ele>1861.2497558594</ele>
        <time>2011-07-24T09:45:19Z</time>
      </trkpt>
      <trkpt lat="44.77263" lon="7.03516">
        <ele>1868.9404296875</ele>
        <time>2011-07-24T09:45:22Z</time>
      </trkpt>
      <trkpt lat="44.77267" lon="7.03509">
        <ele>1869.9016113281</ele>
        <time>2011-07-24T09:45:28Z</time>
      </trkpt>
      <trkpt lat="44.77268" lon="7.03504">
        <ele>1867.498046875</ele>
        <time>2011-07-24T09:45:32Z</time>
      </trkpt>
      <trkpt lat="44.77271" lon="7.03504">
        <ele>1864.6142578125</ele>
        <time>2011-07-24T09:45:39Z</time>
      </trkpt>
      <trkpt lat="44.77278" lon="7.03511">
        <ele>1855.0012207031</ele>
        <time>2011-07-24T09:45:55Z</time>
      </trkpt>
      <trkpt lat="44.7728" lon="7.03516">
        <ele>1862.6916503906</ele>
        <time>2011-07-24T09:46:03Z</time>
      </trkpt>
      <trkpt lat="44.77274" lon="7.03513">
        <ele>1863.1723632812</ele>
        <time>2011-07-24T09:46:07Z</time>
      </trkpt>
      <trkpt lat="44.77279" lon="7.03512">
        <ele>1858.8464355469</ele>
        <time>2011-07-24T09:46:16Z</time>
      </trkpt>
      <trkpt lat="44.77285" lon="7.03509">
        <ele>1859.3271484375</ele>
        <time>2011-07-24T09:46:21Z</time>
      </trkpt>
      <trkpt lat="44.77287" lon="7.03512">
        <ele>1860.2883300781</ele>
        <time>2011-07-24T09:46:23Z</time>
      </trkpt>
      <trkpt lat="44.77284" lon="7.0352">
        <ele>1855.4819335938</ele>
        <time>2011-07-24T09:46:30Z</time>
      </trkpt>
      <trkpt lat="44.77279" lon="7.03528">
        <ele>1849.7138671875</ele>
        <time>2011-07-24T09:46:48Z</time>
      </trkpt>
      <trkpt lat="44.77274" lon="7.03531">
        <ele>1846.8298339844</ele>
        <time>2011-07-24T09:46:52Z</time>
      </trkpt>
      <trkpt lat="44.77267" lon="7.03532">
        <ele>1844.9072265625</ele>
        <time>2011-07-24T09:46:57Z</time>
      </trkpt>
      <trkpt lat="44.77264" lon="7.03536">
        <ele>1848.2717285156</ele>
        <time>2011-07-24T09:47:02Z</time>
      </trkpt>
      <trkpt lat="44.7726" lon="7.0354">
        <ele>1849.2331542969</ele>
        <time>2011-07-24T09:47:07Z</time>
      </trkpt>
      <trkpt lat="44.77263" lon="7.03538">
        <ele>1843.4653320312</ele>
        <time>2011-07-24T09:47:19Z</time>
      </trkpt>
      <trkpt lat="44.77267" lon="7.03538">
        <ele>1846.3493652344</ele>
        <time>2011-07-24T09:47:24Z</time>
      </trkpt>
      <trkpt lat="44.77271" lon="7.03539">
        <ele>1846.8298339844</ele>
        <time>2011-07-24T09:47:28Z</time>
      </trkpt>
      <trkpt lat="44.77272" lon="7.03542">
        <ele>1840.1008300781</ele>
        <time>2011-07-24T09:47:34Z</time>
      </trkpt>
      <trkpt lat="44.77271" lon="7.03543">
        <ele>1830.4875488281</ele>
        <time>2011-07-24T09:47:41Z</time>
      </trkpt>
      <trkpt lat="44.77273" lon="7.03556">
        <ele>1835.2939453125</ele>
        <time>2011-07-24T09:47:52Z</time>
      </trkpt>
      <trkpt lat="44.77274" lon="7.03558">
        <ele>1836.7360839844</ele>
        <time>2011-07-24T09:47:58Z</time>
      </trkpt>
      <trkpt lat="44.77276" lon="7.03556">
        <ele>1836.7360839844</ele>
        <time>2011-07-24T09:48:03Z</time>
      </trkpt>
      <trkpt lat="44.77281" lon="7.03557">
        <ele>1838.6589355469</ele>
        <time>2011-07-24T09:48:08Z</time>
      </trkpt>
      <trkpt lat="44.77287" lon="7.03562">
        <ele>1838.1782226562</ele>
        <time>2011-07-24T09:48:14Z</time>
      </trkpt>
      <trkpt lat="44.77285" lon="7.03566">
        <ele>1834.8134765625</ele>
        <time>2011-07-24T09:48:18Z</time>
      </trkpt>
      <trkpt lat="44.77283" lon="7.0357">
        <ele>1830.4875488281</ele>
        <time>2011-07-24T09:48:22Z</time>
      </trkpt>
      <trkpt lat="44.77277" lon="7.03573">
        <ele>1825.2001953125</ele>
        <time>2011-07-24T09:48:27Z</time>
      </trkpt>
      <trkpt lat="44.77274" lon="7.03576">
        <ele>1825.2001953125</ele>
        <time>2011-07-24T09:48:33Z</time>
      </trkpt>
      <trkpt lat="44.77269" lon="7.03577">
        <ele>1817.990234375</ele>
        <time>2011-07-24T09:48:39Z</time>
      </trkpt>
      <trkpt lat="44.77266" lon="7.03579">
        <ele>1815.1064453125</ele>
        <time>2011-07-24T09:48:44Z</time>
      </trkpt>
      <trkpt lat="44.77266" lon="7.03581">
        <ele>1819.4323730469</ele>
        <time>2011-07-24T09:48:51Z</time>
      </trkpt>
      <trkpt lat="44.77261" lon="7.0359">
        <ele>1826.6423339844</ele>
        <time>2011-07-24T09:49:01Z</time>
      </trkpt>
      <trkpt lat="44.77254" lon="7.03592">
        <ele>1824.2390136719</ele>
        <time>2011-07-24T09:49:07Z</time>
      </trkpt>
      <trkpt lat="44.77252" lon="7.03595">
        <ele>1823.7583007812</ele>
        <time>2011-07-24T09:49:11Z</time>
      </trkpt>
      <trkpt lat="44.77253" lon="7.03609">
        <ele>1811.2612304688</ele>
        <time>2011-07-24T09:50:05Z</time>
      </trkpt>
      <trkpt lat="44.77254" lon="7.03616">
        <ele>1813.6643066406</ele>
        <time>2011-07-24T09:50:12Z</time>
      </trkpt>
      <trkpt lat="44.77258" lon="7.0361">
        <ele>1802.1284179688</ele>
        <time>2011-07-24T09:50:28Z</time>
      </trkpt>
      <trkpt lat="44.77261" lon="7.0361">
        <ele>1798.7639160156</ele>
        <time>2011-07-24T09:50:34Z</time>
      </trkpt>
      <trkpt lat="44.77262" lon="7.03622">
        <ele>1807.416015625</ele>
        <time>2011-07-24T09:50:42Z</time>
      </trkpt>
      <trkpt lat="44.77259" lon="7.03626">
        <ele>1806.4545898438</ele>
        <time>2011-07-24T09:50:46Z</time>
      </trkpt>
      <trkpt lat="44.77255" lon="7.03639">
        <ele>1806.4545898438</ele>
        <time>2011-07-24T09:50:53Z</time>
      </trkpt>
      <trkpt lat="44.77255" lon="7.03643">
        <ele>1805.9738769531</ele>
        <time>2011-07-24T09:50:57Z</time>
      </trkpt>
      <trkpt lat="44.77263" lon="7.03635">
        <ele>1803.5705566406</ele>
        <time>2011-07-24T09:51:14Z</time>
      </trkpt>
      <trkpt lat="44.77272" lon="7.03649">
        <ele>1799.7253417969</ele>
        <time>2011-07-24T09:51:33Z</time>
      </trkpt>
      <trkpt lat="44.77271" lon="7.03647">
        <ele>1797.3220214844</ele>
        <time>2011-07-24T09:51:42Z</time>
      </trkpt>
      <trkpt lat="44.77275" lon="7.03643">
        <ele>1795.8801269531</ele>
        <time>2011-07-24T09:51:46Z</time>
      </trkpt>
      <trkpt lat="44.77277" lon="7.0365">
        <ele>1794.4379882812</ele>
        <time>2011-07-24T09:51:52Z</time>
      </trkpt>
      <trkpt lat="44.77275" lon="7.03653">
        <ele>1794.4379882812</ele>
        <time>2011-07-24T09:51:57Z</time>
      </trkpt>
      <trkpt lat="44.77279" lon="7.03653">
        <ele>1792.515625</ele>
        <time>2011-07-24T09:52:05Z</time>
      </trkpt>
      <trkpt lat="44.77275" lon="7.03665">
        <ele>1788.6704101562</ele>
        <time>2011-07-24T09:52:22Z</time>
      </trkpt>
      <trkpt lat="44.77264" lon="7.03672">
        <ele>1789.1508789062</ele>
        <time>2011-07-24T09:52:38Z</time>
      </trkpt>
      <trkpt lat="44.77262" lon="7.03675">
        <ele>1786.7473144531</ele>
        <time>2011-07-24T09:52:44Z</time>
      </trkpt>
      <trkpt lat="44.77263" lon="7.03672">
        <ele>1780.4990234375</ele>
        <time>2011-07-24T09:52:49Z</time>
      </trkpt>
      <trkpt lat="44.77262" lon="7.03673">
        <ele>1759.3500976562</ele>
        <time>2011-07-24T09:53:13Z</time>
      </trkpt>
      <trkpt lat="44.77261" lon="7.0368">
        <ele>1763.1953125</ele>
        <time>2011-07-24T09:53:23Z</time>
      </trkpt>
      <trkpt lat="44.77259" lon="7.03682">
        <ele>1768.482421875</ele>
        <time>2011-07-24T09:53:29Z</time>
      </trkpt>
      <trkpt lat="44.77255" lon="7.03685">
        <ele>1770.8857421875</ele>
        <time>2011-07-24T09:53:36Z</time>
      </trkpt>
      <trkpt lat="44.77251" lon="7.03685">
        <ele>1770.4050292969</ele>
        <time>2011-07-24T09:53:40Z</time>
      </trkpt>
      <trkpt lat="44.77245" lon="7.03685">
        <ele>1770.4050292969</ele>
        <time>2011-07-24T09:53:45Z</time>
      </trkpt>
      <trkpt lat="44.77242" lon="7.03685">
        <ele>1770.8857421875</ele>
        <time>2011-07-24T09:53:47Z</time>
      </trkpt>
      <trkpt lat="44.77242" lon="7.03686">
        <ele>1775.2116699219</ele>
        <time>2011-07-24T09:53:50Z</time>
      </trkpt>
      <trkpt lat="44.77238" lon="7.03689">
        <ele>1779.5375976562</ele>
        <time>2011-07-24T09:53:57Z</time>
      </trkpt>
      <trkpt lat="44.77236" lon="7.03687">
        <ele>1779.5375976562</ele>
        <time>2011-07-24T09:54:03Z</time>
      </trkpt>
      <trkpt lat="44.77232" lon="7.03684">
        <ele>1771.8469238281</ele>
        <time>2011-07-24T09:54:12Z</time>
      </trkpt>
      <trkpt lat="44.77235" lon="7.03687">
        <ele>1773.7697753906</ele>
        <time>2011-07-24T09:54:16Z</time>
      </trkpt>
      <trkpt lat="44.77239" lon="7.03694">
        <ele>1777.1345214844</ele>
        <time>2011-07-24T09:54:23Z</time>
      </trkpt>
      <trkpt lat="44.77225" lon="7.03697">
        <ele>1757.4274902344</ele>
        <time>2011-07-24T09:55:03Z</time>
      </trkpt>
      <trkpt lat="44.77221" lon="7.03693">
        <ele>1754.0627441406</ele>
        <time>2011-07-24T09:55:10Z</time>
      </trkpt>
      <trkpt lat="44.77217" lon="7.0369">
        <ele>1747.3334960938</ele>
        <time>2011-07-24T09:55:14Z</time>
      </trkpt>
      <trkpt lat="44.77214" lon="7.03687">
        <ele>1742.0463867188</ele>
        <time>2011-07-24T09:55:17Z</time>
      </trkpt>
      <trkpt lat="44.77209" lon="7.03684">
        <ele>1741.5656738281</ele>
        <time>2011-07-24T09:55:23Z</time>
      </trkpt>
      <trkpt lat="44.77201" lon="7.03684">
        <ele>1740.1237792969</ele>
        <time>2011-07-24T09:55:32Z</time>
      </trkpt>
      <trkpt lat="44.77197" lon="7.03684">
        <ele>1739.162109375</ele>
        <time>2011-07-24T09:55:37Z</time>
      </trkpt>
      <trkpt lat="44.77194" lon="7.0368">
        <ele>1733.3942871094</ele>
        <time>2011-07-24T09:55:43Z</time>
      </trkpt>
      <trkpt lat="44.77191" lon="7.03677">
        <ele>1733.875</ele>
        <time>2011-07-24T09:55:49Z</time>
      </trkpt>
      <trkpt lat="44.77185" lon="7.03674">
        <ele>1730.9912109375</ele>
        <time>2011-07-24T09:55:55Z</time>
      </trkpt>
      <trkpt lat="44.77183" lon="7.03674">
        <ele>1730.9912109375</ele>
        <time>2011-07-24T09:55:57Z</time>
      </trkpt>
      <trkpt lat="44.77179" lon="7.03676">
        <ele>1734.3557128906</ele>
        <time>2011-07-24T09:56:02Z</time>
      </trkpt>
      <trkpt lat="44.77172" lon="7.03671">
        <ele>1731.4716796875</ele>
        <time>2011-07-24T09:56:11Z</time>
      </trkpt>
      <trkpt lat="44.77172" lon="7.03672">
        <ele>1732.9135742188</ele>
        <time>2011-07-24T09:56:14Z</time>
      </trkpt>
      <trkpt lat="44.77176" lon="7.03679">
        <ele>1735.3168945312</ele>
        <time>2011-07-24T09:56:21Z</time>
      </trkpt>
      <trkpt lat="44.77177" lon="7.03683">
        <ele>1736.7587890625</ele>
        <time>2011-07-24T09:56:26Z</time>
      </trkpt>
      <trkpt lat="44.77182" lon="7.03692">
        <ele>1743.48828125</ele>
        <time>2011-07-24T09:56:32Z</time>
      </trkpt>
      <trkpt lat="44.77186" lon="7.03693">
        <ele>1745.4108886719</ele>
        <time>2011-07-24T09:56:37Z</time>
      </trkpt>
      <trkpt lat="44.77188" lon="7.03697">
        <ele>1748.775390625</ele>
        <time>2011-07-24T09:56:40Z</time>
      </trkpt>
      <trkpt lat="44.77198" lon="7.03706">
        <ele>1755.5046386719</ele>
        <time>2011-07-24T09:56:48Z</time>
      </trkpt>
      <trkpt lat="44.77204" lon="7.03711">
        <ele>1756.4660644531</ele>
        <time>2011-07-24T09:56:54Z</time>
      </trkpt>
      <trkpt lat="44.77208" lon="7.03714">
        <ele>1756.9467773438</ele>
        <time>2011-07-24T09:56:58Z</time>
      </trkpt>
      <trkpt lat="44.77217" lon="7.03725">
        <ele>1763.67578125</ele>
        <time>2011-07-24T09:57:07Z</time>
      </trkpt>
      <trkpt lat="44.77217" lon="7.03724">
        <ele>1757.4274902344</ele>
        <time>2011-07-24T09:57:13Z</time>
      </trkpt>
      <trkpt lat="44.77214" lon="7.03728">
        <ele>1753.1013183594</ele>
        <time>2011-07-24T09:57:27Z</time>
      </trkpt>
      <trkpt lat="44.77207" lon="7.03722">
        <ele>1741.5656738281</ele>
        <time>2011-07-24T09:57:33Z</time>
      </trkpt>
      <trkpt lat="44.77202" lon="7.03721">
        <ele>1734.8364257812</ele>
        <time>2011-07-24T09:57:39Z</time>
      </trkpt>
      <trkpt lat="44.77201" lon="7.03721">
        <ele>1737.7202148438</ele>
        <time>2011-07-24T09:57:44Z</time>
      </trkpt>
      <trkpt lat="44.77197" lon="7.0372">
        <ele>1740.6042480469</ele>
        <time>2011-07-24T09:57:50Z</time>
      </trkpt>
      <trkpt lat="44.77194" lon="7.03717">
        <ele>1742.0463867188</ele>
        <time>2011-07-24T09:57:57Z</time>
      </trkpt>
      <trkpt lat="44.77192" lon="7.03715">
        <ele>1740.6042480469</ele>
        <time>2011-07-24T09:58:04Z</time>
      </trkpt>
      <trkpt lat="44.77195" lon="7.0371">
        <ele>1733.875</ele>
        <time>2011-07-24T11:55:49Z</time>
      </trkpt>
      <trkpt lat="44.77195" lon="7.0371">
        <ele>1733.875</ele>
        <time>2011-07-24T11:55:49Z</time>
      </trkpt>
      <trkpt lat="44.77195" lon="7.03716">
        <ele>1735.3168945312</ele>
        <time>2011-07-24T11:55:56Z</time>
      </trkpt>
      <trkpt lat="44.77204" lon="7.03691">
        <ele>1735.3168945312</ele>
        <time>2011-07-24T11:56:02Z</time>
      </trkpt>
      <trkpt lat="44.77208" lon="7.03703">
        <ele>1744.9301757812</ele>
        <time>2011-07-24T11:56:08Z</time>
      </trkpt>
      <trkpt lat="44.77206" lon="7.03712">
        <ele>1745.8916015625</ele>
        <time>2011-07-24T11:56:09Z</time>
      </trkpt>
      <trkpt lat="44.77206" lon="7.03719">
        <ele>1744.9301757812</ele>
        <time>2011-07-24T11:56:15Z</time>
      </trkpt>
      <trkpt lat="44.77203" lon="7.03732">
        <ele>1748.2946777344</ele>
        <time>2011-07-24T11:56:19Z</time>
      </trkpt>
      <trkpt lat="44.77205" lon="7.03741">
        <ele>1748.775390625</ele>
        <time>2011-07-24T11:56:24Z</time>
      </trkpt>
      <trkpt lat="44.77207" lon="7.03737">
        <ele>1750.6979980469</ele>
        <time>2011-07-24T11:56:26Z</time>
      </trkpt>
      <trkpt lat="44.77217" lon="7.03726">
        <ele>1753.58203125</ele>
        <time>2011-07-24T11:56:32Z</time>
      </trkpt>
      <trkpt lat="44.77225" lon="7.03716">
        <ele>1746.8527832031</ele>
        <time>2011-07-24T11:56:40Z</time>
      </trkpt>
      <trkpt lat="44.77227" lon="7.03722">
        <ele>1746.3723144531</ele>
        <time>2011-07-24T11:56:44Z</time>
      </trkpt>
      <trkpt lat="44.7723" lon="7.03718">
        <ele>1743.48828125</ele>
        <time>2011-07-24T11:56:48Z</time>
      </trkpt>
      <trkpt lat="44.77229" lon="7.03732">
        <ele>1743.9689941406</ele>
        <time>2011-07-24T11:56:50Z</time>
      </trkpt>
      <trkpt lat="44.77234" lon="7.03726">
        <ele>1743.9689941406</ele>
        <time>2011-07-24T11:56:52Z</time>
      </trkpt>
      <trkpt lat="44.77242" lon="7.0372">
        <ele>1743.9689941406</ele>
        <time>2011-07-24T11:56:59Z</time>
      </trkpt>
      <trkpt lat="44.77244" lon="7.03727">
        <ele>1743.0075683594</ele>
        <time>2011-07-24T11:57:04Z</time>
      </trkpt>
      <trkpt lat="44.77248" lon="7.03722">
        <ele>1743.0075683594</ele>
        <time>2011-07-24T11:57:08Z</time>
      </trkpt>
      <trkpt lat="44.77246" lon="7.03746">
        <ele>1742.0463867188</ele>
        <time>2011-07-24T11:57:14Z</time>
      </trkpt>
      <trkpt lat="44.77242" lon="7.03769">
        <ele>1741.5656738281</ele>
        <time>2011-07-24T11:57:19Z</time>
      </trkpt>
      <trkpt lat="44.77247" lon="7.03753">
        <ele>1742.5270996094</ele>
        <time>2011-07-24T11:57:23Z</time>
      </trkpt>
      <trkpt lat="44.77263" lon="7.03746">
        <ele>1734.3557128906</ele>
        <time>2011-07-24T11:57:53Z</time>
      </trkpt>
      <trkpt lat="44.77271" lon="7.03738">
        <ele>1740.1237792969</ele>
        <time>2011-07-24T11:57:57Z</time>
      </trkpt>
      <trkpt lat="44.77278" lon="7.03751">
        <ele>1738.681640625</ele>
        <time>2011-07-24T11:58:04Z</time>
      </trkpt>
      <trkpt lat="44.77276" lon="7.0376">
        <ele>1739.162109375</ele>
        <time>2011-07-24T11:58:06Z</time>
      </trkpt>
      <trkpt lat="44.77279" lon="7.03754">
        <ele>1735.7976074219</ele>
        <time>2011-07-24T11:58:10Z</time>
      </trkpt>
      <trkpt lat="44.77278" lon="7.03762">
        <ele>1735.3168945312</ele>
        <time>2011-07-24T11:58:11Z</time>
      </trkpt>
      <trkpt lat="44.7728" lon="7.03768">
        <ele>1733.875</ele>
        <time>2011-07-24T11:58:15Z</time>
      </trkpt>
      <trkpt lat="44.77279" lon="7.03771">
        <ele>1732.9135742188</ele>
        <time>2011-07-24T11:58:16Z</time>
      </trkpt>
      <trkpt lat="44.77283" lon="7.03767">
        <ele>1733.875</ele>
        <time>2011-07-24T11:58:18Z</time>
      </trkpt>
      <trkpt lat="44.77285" lon="7.03772">
        <ele>1734.8364257812</ele>
        <time>2011-07-24T11:58:21Z</time>
      </trkpt>
      <trkpt lat="44.77293" lon="7.03775">
        <ele>1735.7976074219</ele>
        <time>2011-07-24T11:58:26Z</time>
      </trkpt>
      <trkpt lat="44.773" lon="7.03777">
        <ele>1737.2395019531</ele>
        <time>2011-07-24T11:58:32Z</time>
      </trkpt>
      <trkpt lat="44.77298" lon="7.03805">
        <ele>1738.2009277344</ele>
        <time>2011-07-24T11:58:38Z</time>
      </trkpt>
      <trkpt lat="44.773" lon="7.03813">
        <ele>1741.0849609375</ele>
        <time>2011-07-24T11:58:43Z</time>
      </trkpt>
      <trkpt lat="44.77308" lon="7.03826">
        <ele>1755.5046386719</ele>
        <time>2011-07-24T11:59:03Z</time>
      </trkpt>
      <trkpt lat="44.77313" lon="7.03832">
        <ele>1763.1953125</ele>
        <time>2011-07-24T11:59:07Z</time>
      </trkpt>
      <trkpt lat="44.77312" lon="7.03853">
        <ele>1757.4274902344</ele>
        <time>2011-07-24T11:59:13Z</time>
      </trkpt>
      <trkpt lat="44.7732" lon="7.03866">
        <ele>1744.9301757812</ele>
        <time>2011-07-24T11:59:28Z</time>
      </trkpt>
      <trkpt lat="44.77325" lon="7.03873">
        <ele>1740.6042480469</ele>
        <time>2011-07-24T11:59:34Z</time>
      </trkpt>
      <trkpt lat="44.77327" lon="7.03884">
        <ele>1739.162109375</ele>
        <time>2011-07-24T11:59:39Z</time>
      </trkpt>
      <trkpt lat="44.7733" lon="7.03897">
        <ele>1742.0463867188</ele>
        <time>2011-07-24T11:59:53Z</time>
      </trkpt>
    </trkseg>
  </trk>
</gpx>